<?xml version="1.0" encoding="UTF-8" standalone="no" ?>
<gpx xmlns="http://www.topografix.com/GPX/1/1" creator="MapSource 6.16.3" version="1.1" xmlns:xsi="http://www.w3.org/2001/XMLSchema-instance" xsi:schemaLocation="http://www.topografix.com/GPX/1/1 http://www.topografix.com/GPX/1/1/gpx.xsd">

  <metadata>
    <link href="http://www.garmin.com">
      <text>Garmin International</text>
    </link>
    <time>2016-09-06T14:47:32Z</time>
    <bounds maxlat="44.484908580780029" maxlon="11.272616386413574" minlat="44.399099266156554" minlon="11.180992126464844"/>
  </metadata>

  <trk>
    <name>ACTIVE LOG</name>
    <trkseg>
      <trkpt lat="44.478449821472168" lon="11.270427703857422">
        <ele>60</ele>
        <time>2004-12-18T08:06:48Z</time>
      </trkpt>
      <trkpt lat="44.478063583374023" lon="11.270255958661437">
        <ele>62</ele>
        <time>2004-12-18T08:07:11Z</time>
      </trkpt>
      <trkpt lat="44.478020668029785" lon="11.27023458480835">
        <ele>62</ele>
        <time>2004-12-18T08:07:13Z</time>
      </trkpt>
      <trkpt lat="44.47789192199707" lon="11.270277500152588">
        <ele>62</ele>
        <time>2004-12-18T08:07:16Z</time>
      </trkpt>
      <trkpt lat="44.477291107177734" lon="11.270384788513184">
        <ele>62</ele>
        <time>2004-12-18T08:07:18Z</time>
      </trkpt>
      <trkpt lat="44.477055072784424" lon="11.270577907562256">
        <ele>62</ele>
        <time>2004-12-18T08:07:23Z</time>
      </trkpt>
      <trkpt lat="44.476282596588135" lon="11.271307468414307">
        <ele>62</ele>
        <time>2004-12-18T08:07:46Z</time>
      </trkpt>
      <trkpt lat="44.475574493408203" lon="11.271951198577881">
        <ele>63</ele>
        <time>2004-12-18T08:08:07Z</time>
      </trkpt>
      <trkpt lat="44.474737560376525" lon="11.272423267364502">
        <ele>65</ele>
        <time>2004-12-18T08:08:30Z</time>
      </trkpt>
      <trkpt lat="44.47439432144165" lon="11.272530639544129">
        <ele>65</ele>
        <time>2004-12-18T08:08:39Z</time>
      </trkpt>
      <trkpt lat="44.474072540178895" lon="11.272616386413574">
        <ele>65</ele>
        <time>2004-12-18T08:08:47Z</time>
      </trkpt>
      <trkpt lat="44.474050998687744" lon="11.272530639544129">
        <ele>64</ele>
        <time>2004-12-18T08:08:51Z</time>
      </trkpt>
      <trkpt lat="44.474029541015625" lon="11.272487640380859">
        <ele>65</ele>
        <time>2004-12-18T08:08:53Z</time>
      </trkpt>
      <trkpt lat="44.473965167999268" lon="11.272401809692383">
        <ele>65</ele>
        <time>2004-12-18T08:09:01Z</time>
      </trkpt>
      <trkpt lat="44.473321437835693" lon="11.272358894348145">
        <ele>65</ele>
        <time>2004-12-18T08:09:29Z</time>
      </trkpt>
      <trkpt lat="44.470510482788086" lon="11.271843910217285">
        <ele>63</ele>
        <time>2004-12-18T08:10:24Z</time>
      </trkpt>
      <trkpt lat="44.469630718231201" lon="11.271328926086426">
        <ele>65</ele>
        <time>2004-12-18T08:10:46Z</time>
      </trkpt>
      <trkpt lat="44.469308936968446" lon="11.271178722381592">
        <ele>66</ele>
        <time>2004-12-18T08:10:53Z</time>
      </trkpt>
      <trkpt lat="44.469265937805176" lon="11.271028518676758">
        <ele>68</ele>
        <time>2004-12-18T08:11:00Z</time>
      </trkpt>
      <trkpt lat="44.468708038330078" lon="11.270685195922852">
        <ele>68</ele>
        <time>2004-12-18T08:11:17Z</time>
      </trkpt>
      <trkpt lat="44.468042934313416" lon="11.270384788513184">
        <ele>69</ele>
        <time>2004-12-18T08:11:35Z</time>
      </trkpt>
      <trkpt lat="44.465982913970947" lon="11.269290363416076">
        <ele>72</ele>
        <time>2004-12-18T08:12:28Z</time>
      </trkpt>
      <trkpt lat="44.465897083282471" lon="11.269247531890869">
        <ele>74</ele>
        <time>2004-12-18T08:12:30Z</time>
      </trkpt>
      <trkpt lat="44.465768337249756" lon="11.269183158874512">
        <ele>73</ele>
        <time>2004-12-18T08:12:33Z</time>
      </trkpt>
      <trkpt lat="44.465660965070128" lon="11.269118785858154">
        <ele>73</ele>
        <time>2004-12-18T08:12:36Z</time>
      </trkpt>
      <trkpt lat="44.464995861053467" lon="11.268796920776367">
        <ele>73</ele>
        <time>2004-12-18T08:12:52Z</time>
      </trkpt>
      <trkpt lat="44.464309215545654" lon="11.268432140350342">
        <ele>74</ele>
        <time>2004-12-18T08:13:08Z</time>
      </trkpt>
      <trkpt lat="44.463429534807801" lon="11.26776703633368">
        <ele>76</ele>
        <time>2004-12-18T08:13:35Z</time>
      </trkpt>
      <trkpt lat="44.46317195892334" lon="11.26697301864624">
        <ele>78</ele>
        <time>2004-12-18T08:13:58Z</time>
      </trkpt>
      <trkpt lat="44.463086128234863" lon="11.266436576843262">
        <ele>79</ele>
        <time>2004-12-18T08:14:16Z</time>
      </trkpt>
      <trkpt lat="44.46291446685791" lon="11.266372203826904">
        <ele>83</ele>
        <time>2004-12-18T08:14:25Z</time>
      </trkpt>
      <trkpt lat="44.462528228759766" lon="11.266286373138428">
        <ele>85</ele>
        <time>2004-12-18T08:14:44Z</time>
      </trkpt>
      <trkpt lat="44.462249279022217" lon="11.266136169433594">
        <ele>87</ele>
        <time>2004-12-18T08:14:59Z</time>
      </trkpt>
      <trkpt lat="44.461948871612549" lon="11.265857219696045">
        <ele>89</ele>
        <time>2004-12-18T08:15:19Z</time>
      </trkpt>
      <trkpt lat="44.46192741394043" lon="11.265814304351807">
        <ele>90</ele>
        <time>2004-12-18T08:15:21Z</time>
      </trkpt>
      <trkpt lat="44.462077617645264" lon="11.265256404876709">
        <ele>92</ele>
        <time>2004-12-18T08:15:42Z</time>
      </trkpt>
      <trkpt lat="44.462206363677979" lon="11.264784336090088">
        <ele>95</ele>
        <time>2004-12-18T08:15:59Z</time>
      </trkpt>
      <trkpt lat="44.462356567382812" lon="11.264119064435363">
        <ele>97</ele>
        <time>2004-12-18T08:16:21Z</time>
      </trkpt>
      <trkpt lat="44.462270736694336" lon="11.263775825500488">
        <ele>100</ele>
        <time>2004-12-18T08:16:36Z</time>
      </trkpt>
      <trkpt lat="44.461906040087342" lon="11.263668537139893">
        <ele>103</ele>
        <time>2004-12-18T08:16:56Z</time>
      </trkpt>
      <trkpt lat="44.461455261334777" lon="11.263518333435059">
        <ele>106</ele>
        <time>2004-12-18T08:17:19Z</time>
      </trkpt>
      <trkpt lat="44.461154937744141" lon="11.263432502746582">
        <ele>108</ele>
        <time>2004-12-18T08:17:34Z</time>
      </trkpt>
      <trkpt lat="44.461004734039307" lon="11.263175010681152">
        <ele>112</ele>
        <time>2004-12-18T08:17:48Z</time>
      </trkpt>
      <trkpt lat="44.461069107055664" lon="11.262831687927246">
        <ele>112</ele>
        <time>2004-12-18T08:18:01Z</time>
      </trkpt>
      <trkpt lat="44.461090564727783" lon="11.262638568878174">
        <ele>115</ele>
        <time>2004-12-18T08:18:09Z</time>
      </trkpt>
      <trkpt lat="44.461154937744141" lon="11.262273788452148">
        <ele>118</ele>
        <time>2004-12-18T08:18:25Z</time>
      </trkpt>
      <trkpt lat="44.461219310760498" lon="11.262080669403076">
        <ele>120</ele>
        <time>2004-12-18T08:18:35Z</time>
      </trkpt>
      <trkpt lat="44.461455261334777" lon="11.261715888977051">
        <ele>122</ele>
        <time>2004-12-18T08:18:56Z</time>
      </trkpt>
      <trkpt lat="44.461755836382508" lon="11.261286735534668">
        <ele>126</ele>
        <time>2004-12-18T08:19:21Z</time>
      </trkpt>
      <trkpt lat="44.46192741394043" lon="11.261050701141357">
        <ele>129</ele>
        <time>2004-12-18T08:19:35Z</time>
      </trkpt>
      <trkpt lat="44.462270736694336" lon="11.261029159650207">
        <ele>130</ele>
        <time>2004-12-18T08:19:53Z</time>
      </trkpt>
      <trkpt lat="44.46242094039917" lon="11.261093616485596">
        <ele>132</ele>
        <time>2004-12-18T08:20:01Z</time>
      </trkpt>
      <trkpt lat="44.462785720825195" lon="11.261436939239502">
        <ele>135</ele>
        <time>2004-12-18T08:20:24Z</time>
      </trkpt>
      <trkpt lat="44.463086128234863" lon="11.261565685272217">
        <ele>138</ele>
        <time>2004-12-18T08:20:41Z</time>
      </trkpt>
      <trkpt lat="44.463086128234863" lon="11.261522769927979">
        <ele>140</ele>
        <time>2004-12-18T08:20:44Z</time>
      </trkpt>
      <trkpt lat="44.463107585906982" lon="11.261479938402772">
        <ele>139</ele>
        <time>2004-12-18T08:20:46Z</time>
      </trkpt>
      <trkpt lat="44.462699890136719" lon="11.261200904846191">
        <ele>142</ele>
        <time>2004-12-18T08:21:03Z</time>
      </trkpt>
      <trkpt lat="44.462378025054932" lon="11.260900497436523">
        <ele>143</ele>
        <time>2004-12-18T08:21:20Z</time>
      </trkpt>
      <trkpt lat="44.462163364514709" lon="11.260643005371094">
        <ele>145</ele>
        <time>2004-12-18T08:21:34Z</time>
      </trkpt>
      <trkpt lat="44.461863040924072" lon="11.260063564404845">
        <ele>148</ele>
        <time>2004-12-18T08:22:01Z</time>
      </trkpt>
      <trkpt lat="44.461863040924072" lon="11.259548664093018">
        <ele>151</ele>
        <time>2004-12-18T08:22:17Z</time>
      </trkpt>
      <trkpt lat="44.461777210235596" lon="11.25922679901123">
        <ele>151</ele>
        <time>2004-12-18T08:22:30Z</time>
      </trkpt>
      <trkpt lat="44.461584091186523" lon="11.259205341339111">
        <ele>154</ele>
        <time>2004-12-18T08:22:41Z</time>
      </trkpt>
      <trkpt lat="44.46117639541626" lon="11.259205341339111">
        <ele>155</ele>
        <time>2004-12-18T08:23:01Z</time>
      </trkpt>
      <trkpt lat="44.460768699645996" lon="11.259205341339111">
        <ele>158</ele>
        <time>2004-12-18T08:23:22Z</time>
      </trkpt>
      <trkpt lat="44.460489666089416" lon="11.259183883666992">
        <ele>160</ele>
        <time>2004-12-18T08:23:34Z</time>
      </trkpt>
      <trkpt lat="44.460060596466064" lon="11.258969306945801">
        <ele>162</ele>
        <time>2004-12-18T08:23:52Z</time>
      </trkpt>
      <trkpt lat="44.45967435836792" lon="11.258647441864014">
        <ele>160</ele>
        <time>2004-12-18T08:24:09Z</time>
      </trkpt>
      <trkpt lat="44.459331035614014" lon="11.258261203765869">
        <ele>162</ele>
        <time>2004-12-18T08:24:28Z</time>
      </trkpt>
      <trkpt lat="44.45918083190918" lon="11.257896423339844">
        <ele>165</ele>
        <time>2004-12-18T08:24:44Z</time>
      </trkpt>
      <trkpt lat="44.459073459729552" lon="11.257445812225342">
        <ele>168</ele>
        <time>2004-12-18T08:25:02Z</time>
      </trkpt>
      <trkpt lat="44.45896633900702" lon="11.257102489471436">
        <ele>171</ele>
        <time>2004-12-18T08:25:16Z</time>
      </trkpt>
      <trkpt lat="44.458773136138916" lon="11.256523132324219">
        <ele>174</ele>
        <time>2004-12-18T08:25:39Z</time>
      </trkpt>
      <trkpt lat="44.458580017089844" lon="11.255922317504883">
        <ele>177</ele>
        <time>2004-12-18T08:26:02Z</time>
      </trkpt>
      <trkpt lat="44.458665763959289" lon="11.255536079406738">
        <ele>178</ele>
        <time>2004-12-18T08:26:19Z</time>
      </trkpt>
      <trkpt lat="44.458858966827393" lon="11.255364418029785">
        <ele>180</ele>
        <time>2004-12-18T08:26:31Z</time>
      </trkpt>
      <trkpt lat="44.45896633900702" lon="11.255257129669189">
        <ele>181</ele>
        <time>2004-12-18T08:26:38Z</time>
      </trkpt>
      <trkpt lat="44.459331035614014" lon="11.254913806915283">
        <ele>184</ele>
        <time>2004-12-18T08:27:00Z</time>
      </trkpt>
      <trkpt lat="44.459524238482118" lon="11.254742061719298">
        <ele>188</ele>
        <time>2004-12-18T08:27:13Z</time>
      </trkpt>
      <trkpt lat="44.459545612335205" lon="11.254720687866211">
        <ele>188</ele>
        <time>2004-12-18T08:27:14Z</time>
      </trkpt>
      <trkpt lat="44.459717273712158" lon="11.254570484161377">
        <ele>192</ele>
        <time>2004-12-18T08:27:26Z</time>
      </trkpt>
      <trkpt lat="44.459738731384277" lon="11.254549026489258">
        <ele>191</ele>
        <time>2004-12-18T08:27:27Z</time>
      </trkpt>
      <trkpt lat="44.459888935089111" lon="11.254377365112305">
        <ele>192</ele>
        <time>2004-12-18T08:27:38Z</time>
      </trkpt>
      <trkpt lat="44.459888935089111" lon="11.254205703735352">
        <ele>193</ele>
        <time>2004-12-18T08:27:45Z</time>
      </trkpt>
      <trkpt lat="44.45991039276123" lon="11.253926837816834">
        <ele>197</ele>
        <time>2004-12-18T08:27:55Z</time>
      </trkpt>
      <trkpt lat="44.459931934252381" lon="11.253411769866943">
        <ele>198</ele>
        <time>2004-12-18T08:28:15Z</time>
      </trkpt>
      <trkpt lat="44.460017681121826" lon="11.25274658203125">
        <ele>201</ele>
        <time>2004-12-18T08:28:40Z</time>
      </trkpt>
      <trkpt lat="44.460103511810303" lon="11.252081394195557">
        <ele>204</ele>
        <time>2004-12-18T08:29:04Z</time>
      </trkpt>
      <trkpt lat="44.460146427154541" lon="11.251652240753174">
        <ele>206</ele>
        <time>2004-12-18T08:29:19Z</time>
      </trkpt>
      <trkpt lat="44.460189258679748" lon="11.251330375671387">
        <ele>208</ele>
        <time>2004-12-18T08:29:31Z</time>
      </trkpt>
      <trkpt lat="44.460275173187256" lon="11.25075101852417">
        <ele>212</ele>
        <time>2004-12-18T08:29:53Z</time>
      </trkpt>
      <trkpt lat="44.460296630859375" lon="11.250579440966249">
        <ele>211</ele>
        <time>2004-12-18T08:29:59Z</time>
      </trkpt>
      <trkpt lat="44.460318088531494" lon="11.250236034393311">
        <ele>214</ele>
        <time>2004-12-18T08:30:12Z</time>
      </trkpt>
      <trkpt lat="44.460296630859375" lon="11.249699592590332">
        <ele>215</ele>
        <time>2004-12-18T08:30:29Z</time>
      </trkpt>
      <trkpt lat="44.460275173187256" lon="11.249527931213379">
        <ele>215</ele>
        <time>2004-12-18T08:30:35Z</time>
      </trkpt>
      <trkpt lat="44.460210800170898" lon="11.248862659558654">
        <ele>218</ele>
        <time>2004-12-18T08:31:00Z</time>
      </trkpt>
      <trkpt lat="44.46016788482666" lon="11.248540878295898">
        <ele>220</ele>
        <time>2004-12-18T08:31:14Z</time>
      </trkpt>
      <trkpt lat="44.460124969482422" lon="11.248519420623779">
        <ele>220</ele>
        <time>2004-12-18T08:31:16Z</time>
      </trkpt>
      <trkpt lat="44.459717273712158" lon="11.24845496378839">
        <ele>219</ele>
        <time>2004-12-18T08:31:32Z</time>
      </trkpt>
      <trkpt lat="44.459245204925537" lon="11.248304760083556">
        <ele>220</ele>
        <time>2004-12-18T08:31:51Z</time>
      </trkpt>
      <trkpt lat="44.458858966827393" lon="11.248219013214111">
        <ele>222</ele>
        <time>2004-12-18T08:32:09Z</time>
      </trkpt>
      <trkpt lat="44.458687305450439" lon="11.248197639361024">
        <ele>224</ele>
        <time>2004-12-18T08:32:17Z</time>
      </trkpt>
      <trkpt lat="44.45842981338501" lon="11.248068809509277">
        <ele>225</ele>
        <time>2004-12-18T08:32:33Z</time>
      </trkpt>
      <trkpt lat="44.458472728729248" lon="11.247704029083252">
        <ele>227</ele>
        <time>2004-12-18T08:32:48Z</time>
      </trkpt>
      <trkpt lat="44.458622932434082" lon="11.247060298919678">
        <ele>229</ele>
        <time>2004-12-18T08:33:15Z</time>
      </trkpt>
      <trkpt lat="44.458665763959289" lon="11.246716976165771">
        <ele>233</ele>
        <time>2004-12-18T08:33:30Z</time>
      </trkpt>
      <trkpt lat="44.458687305450439" lon="11.246631061658263">
        <ele>233</ele>
        <time>2004-12-18T08:33:34Z</time>
      </trkpt>
      <trkpt lat="44.458816135302186" lon="11.246309280395508">
        <ele>236</ele>
        <time>2004-12-18T08:33:49Z</time>
      </trkpt>
      <trkpt lat="44.459073459729552" lon="11.245944499969482">
        <ele>239</ele>
        <time>2004-12-18T08:34:08Z</time>
      </trkpt>
      <trkpt lat="44.459352493286133" lon="11.24549388885498">
        <ele>242</ele>
        <time>2004-12-18T08:34:31Z</time>
      </trkpt>
      <trkpt lat="44.459481239318848" lon="11.245279312133789">
        <ele>246</ele>
        <time>2004-12-18T08:34:42Z</time>
      </trkpt>
      <trkpt lat="44.459481239318848" lon="11.245279312133789">
        <ele>246</ele>
        <time>2004-12-18T08:34:43Z</time>
      </trkpt>
      <trkpt lat="44.459738731384277" lon="11.244935989379883">
        <ele>246</ele>
        <time>2004-12-18T08:35:04Z</time>
      </trkpt>
      <trkpt lat="44.459781562909484" lon="11.244871616363525">
        <ele>250</ele>
        <time>2004-12-18T08:35:07Z</time>
      </trkpt>
      <trkpt lat="44.459803104400635" lon="11.244850158691406">
        <ele>250</ele>
        <time>2004-12-18T08:35:08Z</time>
      </trkpt>
      <trkpt lat="44.459974765777588" lon="11.244635581970215">
        <ele>254</ele>
        <time>2004-12-18T08:35:20Z</time>
      </trkpt>
      <trkpt lat="44.460017681121826" lon="11.244528293609619">
        <ele>255</ele>
        <time>2004-12-18T08:35:27Z</time>
      </trkpt>
      <trkpt lat="44.460039138793945" lon="11.244463920593262">
        <ele>257</ele>
        <time>2004-12-18T08:35:31Z</time>
      </trkpt>
      <trkpt lat="44.46016788482666" lon="11.24401330947876">
        <ele>260</ele>
        <time>2004-12-18T08:35:55Z</time>
      </trkpt>
      <trkpt lat="44.460232341662049" lon="11.243820190429688">
        <ele>263</ele>
        <time>2004-12-18T08:36:07Z</time>
      </trkpt>
      <trkpt lat="44.460275173187256" lon="11.243691360577941">
        <ele>263</ele>
        <time>2004-12-18T08:36:15Z</time>
      </trkpt>
      <trkpt lat="44.460296630859375" lon="11.243648529052734">
        <ele>264</ele>
        <time>2004-12-18T08:36:18Z</time>
      </trkpt>
      <trkpt lat="44.460296630859375" lon="11.243584239855409">
        <ele>266</ele>
        <time>2004-12-18T08:36:22Z</time>
      </trkpt>
      <trkpt lat="44.460318088531494" lon="11.243541240692139">
        <ele>265</ele>
        <time>2004-12-18T08:36:25Z</time>
      </trkpt>
      <trkpt lat="44.460318088531494" lon="11.243434036150575">
        <ele>267</ele>
        <time>2004-12-18T08:36:32Z</time>
      </trkpt>
      <trkpt lat="44.460275173187256" lon="11.243133461102843">
        <ele>268</ele>
        <time>2004-12-18T08:36:50Z</time>
      </trkpt>
      <trkpt lat="44.460253715515137" lon="11.242918968200684">
        <ele>273</ele>
        <time>2004-12-18T08:37:01Z</time>
      </trkpt>
      <trkpt lat="44.460318088531494" lon="11.242618560791016">
        <ele>275</ele>
        <time>2004-12-18T08:37:17Z</time>
      </trkpt>
      <trkpt lat="44.460339462384582" lon="11.242554187774658">
        <ele>276</ele>
        <time>2004-12-18T08:37:22Z</time>
      </trkpt>
      <trkpt lat="44.460446834564209" lon="11.242146492004395">
        <ele>280</ele>
        <time>2004-12-18T08:37:43Z</time>
      </trkpt>
      <trkpt lat="44.46042537689209" lon="11.241996288299561">
        <ele>284</ele>
        <time>2004-12-18T08:37:51Z</time>
      </trkpt>
      <trkpt lat="44.460361003875732" lon="11.241910541430116">
        <ele>282</ele>
        <time>2004-12-18T08:37:57Z</time>
      </trkpt>
      <trkpt lat="44.460275173187256" lon="11.241824626922607">
        <ele>285</ele>
        <time>2004-12-18T08:38:03Z</time>
      </trkpt>
      <trkpt lat="44.460124969482422" lon="11.241631507873535">
        <ele>287</ele>
        <time>2004-12-18T08:38:17Z</time>
      </trkpt>
      <trkpt lat="44.459803104400635" lon="11.241288185119629">
        <ele>289</ele>
        <time>2004-12-18T08:38:43Z</time>
      </trkpt>
      <trkpt lat="44.459545612335205" lon="11.24105223454535">
        <ele>290</ele>
        <time>2004-12-18T08:39:01Z</time>
      </trkpt>
      <trkpt lat="44.45941686630249" lon="11.240944862365723">
        <ele>290</ele>
        <time>2004-12-18T08:39:17Z</time>
      </trkpt>
      <trkpt lat="44.459438323974609" lon="11.240944862365723">
        <ele>291</ele>
        <time>2004-12-18T08:39:58Z</time>
      </trkpt>
      <trkpt lat="44.459438323974609" lon="11.240944862365723">
        <ele>291</ele>
        <time>2004-12-18T08:40:17Z</time>
      </trkpt>
      <trkpt lat="44.459438323974609" lon="11.240923404693604">
        <ele>291</ele>
        <time>2004-12-18T08:41:14Z</time>
      </trkpt>
      <trkpt lat="44.45941686630249" lon="11.240923404693604">
        <ele>291</ele>
        <time>2004-12-18T08:41:46Z</time>
      </trkpt>
      <trkpt lat="44.459395408630371" lon="11.240794658660889">
        <ele>293</ele>
        <time>2004-12-18T08:41:55Z</time>
      </trkpt>
      <trkpt lat="44.459395408630371" lon="11.240730285644531">
        <ele>296</ele>
        <time>2004-12-18T08:41:59Z</time>
      </trkpt>
      <trkpt lat="44.459374034777284" lon="11.240451335906982">
        <ele>296</ele>
        <time>2004-12-18T08:42:15Z</time>
      </trkpt>
      <trkpt lat="44.459438323974609" lon="11.24025821685791">
        <ele>300</ele>
        <time>2004-12-18T08:42:25Z</time>
      </trkpt>
      <trkpt lat="44.459545612335205" lon="11.239979267120361">
        <ele>302</ele>
        <time>2004-12-18T08:42:41Z</time>
      </trkpt>
      <trkpt lat="44.459545612335205" lon="11.239936435595155">
        <ele>302</ele>
        <time>2004-12-18T08:42:43Z</time>
      </trkpt>
      <trkpt lat="44.459588527679443" lon="11.23976469039917">
        <ele>306</ele>
        <time>2004-12-18T08:42:52Z</time>
      </trkpt>
      <trkpt lat="44.459760189056396" lon="11.239464282989502">
        <ele>310</ele>
        <time>2004-12-18T08:43:13Z</time>
      </trkpt>
      <trkpt lat="44.459824562072754" lon="11.239378536120057">
        <ele>314</ele>
        <time>2004-12-18T08:43:23Z</time>
      </trkpt>
      <trkpt lat="44.459824562072754" lon="11.239356994628906">
        <ele>314</ele>
        <time>2004-12-18T08:43:24Z</time>
      </trkpt>
      <trkpt lat="44.460103511810303" lon="11.239120960235596">
        <ele>317</ele>
        <time>2004-12-18T08:43:53Z</time>
      </trkpt>
      <trkpt lat="44.46016788482666" lon="11.239056587219238">
        <ele>319</ele>
        <time>2004-12-18T08:44:00Z</time>
      </trkpt>
      <trkpt lat="44.460210800170898" lon="11.239013671875">
        <ele>321</ele>
        <time>2004-12-18T08:44:03Z</time>
      </trkpt>
      <trkpt lat="44.460253715515137" lon="11.238777637481689">
        <ele>325</ele>
        <time>2004-12-18T08:44:21Z</time>
      </trkpt>
      <trkpt lat="44.460232341662049" lon="11.238799095153809">
        <ele>326</ele>
        <time>2004-12-18T08:44:24Z</time>
      </trkpt>
      <trkpt lat="44.460039138793945" lon="11.238949298858643">
        <ele>327</ele>
        <time>2004-12-18T08:44:43Z</time>
      </trkpt>
      <trkpt lat="44.459803104400635" lon="11.239142417907715">
        <ele>331</ele>
        <time>2004-12-18T08:45:06Z</time>
      </trkpt>
      <trkpt lat="44.459803104400635" lon="11.239142417907715">
        <ele>331</ele>
        <time>2004-12-18T08:45:07Z</time>
      </trkpt>
      <trkpt lat="44.459567070007324" lon="11.23927116394043">
        <ele>335</ele>
        <time>2004-12-18T08:45:18Z</time>
      </trkpt>
      <trkpt lat="44.459481239318848" lon="11.239335536956787">
        <ele>338</ele>
        <time>2004-12-18T08:45:24Z</time>
      </trkpt>
      <trkpt lat="44.459052085876465" lon="11.239442825317383">
        <ele>342</ele>
        <time>2004-12-18T08:45:51Z</time>
      </trkpt>
      <trkpt lat="44.459030628204346" lon="11.239442825317383">
        <ele>341</ele>
        <time>2004-12-18T08:45:52Z</time>
      </trkpt>
      <trkpt lat="44.458987712860107" lon="11.239421367645264">
        <ele>339</ele>
        <time>2004-12-18T08:45:55Z</time>
      </trkpt>
      <trkpt lat="44.458944797515869" lon="11.239399909973145">
        <ele>342</ele>
        <time>2004-12-18T08:45:58Z</time>
      </trkpt>
      <trkpt lat="44.45892333984375" lon="11.239292621612549">
        <ele>346</ele>
        <time>2004-12-18T08:46:15Z</time>
      </trkpt>
      <trkpt lat="44.458901882171631" lon="11.239206790924072">
        <ele>348</ele>
        <time>2004-12-18T08:46:24Z</time>
      </trkpt>
      <trkpt lat="44.459309577941895" lon="11.238842010498047">
        <ele>351</ele>
        <time>2004-12-18T08:46:39Z</time>
      </trkpt>
      <trkpt lat="44.459395408630371" lon="11.238842010498047">
        <ele>353</ele>
        <time>2004-12-18T08:46:44Z</time>
      </trkpt>
      <trkpt lat="44.459438323974609" lon="11.238584518432617">
        <ele>356</ele>
        <time>2004-12-18T08:46:49Z</time>
      </trkpt>
      <trkpt lat="44.45941686630249" lon="11.238520061597228">
        <ele>357</ele>
        <time>2004-12-18T08:46:53Z</time>
      </trkpt>
      <trkpt lat="44.459395408630371" lon="11.238477230072021">
        <ele>355</ele>
        <time>2004-12-18T08:46:56Z</time>
      </trkpt>
      <trkpt lat="44.459374034777284" lon="11.238348484039307">
        <ele>357</ele>
        <time>2004-12-18T08:47:04Z</time>
      </trkpt>
      <trkpt lat="44.459395408630371" lon="11.238241195678711">
        <ele>355</ele>
        <time>2004-12-18T08:47:10Z</time>
      </trkpt>
      <trkpt lat="44.459459781646729" lon="11.238262737169862">
        <ele>357</ele>
        <time>2004-12-18T08:47:14Z</time>
      </trkpt>
      <trkpt lat="44.459567070007324" lon="11.238262737169862">
        <ele>357</ele>
        <time>2004-12-18T08:47:22Z</time>
      </trkpt>
      <trkpt lat="44.459567070007324" lon="11.238048076629639">
        <ele>357</ele>
        <time>2004-12-18T08:49:00Z</time>
      </trkpt>
      <trkpt lat="44.459524238482118" lon="11.237876415252686">
        <ele>358</ele>
        <time>2004-12-18T08:49:09Z</time>
      </trkpt>
      <trkpt lat="44.459524238482118" lon="11.237576007843018">
        <ele>358</ele>
        <time>2004-12-18T08:49:27Z</time>
      </trkpt>
      <trkpt lat="44.459524238482118" lon="11.23755463398993">
        <ele>358</ele>
        <time>2004-12-18T08:49:28Z</time>
      </trkpt>
      <trkpt lat="44.459502696990967" lon="11.23751163482666">
        <ele>360</ele>
        <time>2004-12-18T08:49:31Z</time>
      </trkpt>
      <trkpt lat="44.459481239318848" lon="11.237447261810303">
        <ele>358</ele>
        <time>2004-12-18T08:49:35Z</time>
      </trkpt>
      <trkpt lat="44.459459781646729" lon="11.237339973449707">
        <ele>358</ele>
        <time>2004-12-18T08:49:41Z</time>
      </trkpt>
      <trkpt lat="44.459459781646729" lon="11.237254058942199">
        <ele>361</ele>
        <time>2004-12-18T08:49:46Z</time>
      </trkpt>
      <trkpt lat="44.459459781646729" lon="11.237189769744873">
        <ele>360</ele>
        <time>2004-12-18T08:49:52Z</time>
      </trkpt>
      <trkpt lat="44.459481239318848" lon="11.236996734514832">
        <ele>356</ele>
        <time>2004-12-18T08:50:03Z</time>
      </trkpt>
      <trkpt lat="44.459481239318848" lon="11.236975193023682">
        <ele>356</ele>
        <time>2004-12-18T08:50:04Z</time>
      </trkpt>
      <trkpt lat="44.459481239318848" lon="11.236910820007324">
        <ele>351</ele>
        <time>2004-12-18T08:50:08Z</time>
      </trkpt>
      <trkpt lat="44.459481239318848" lon="11.236889362335205">
        <ele>351</ele>
        <time>2004-12-18T08:50:09Z</time>
      </trkpt>
      <trkpt lat="44.459502696990967" lon="11.236803531646729">
        <ele>349</ele>
        <time>2004-12-18T08:50:14Z</time>
      </trkpt>
      <trkpt lat="44.459524238482118" lon="11.236739158630371">
        <ele>345</ele>
        <time>2004-12-18T08:50:18Z</time>
      </trkpt>
      <trkpt lat="44.459524238482118" lon="11.236717700958252">
        <ele>346</ele>
        <time>2004-12-18T08:50:19Z</time>
      </trkpt>
      <trkpt lat="44.459524238482118" lon="11.234979629516602">
        <ele>346</ele>
        <time>2004-12-18T08:50:24Z</time>
      </trkpt>
      <trkpt lat="44.459395408630371" lon="11.234314441680908">
        <ele>344</ele>
        <time>2004-12-18T08:50:33Z</time>
      </trkpt>
      <trkpt lat="44.459352493286133" lon="11.234164237976074">
        <ele>345</ele>
        <time>2004-12-18T08:50:35Z</time>
      </trkpt>
      <trkpt lat="44.459331035614014" lon="11.234078407287598">
        <ele>344</ele>
        <time>2004-12-18T08:50:37Z</time>
      </trkpt>
      <trkpt lat="44.459095001220703" lon="11.233713626861572">
        <ele>342</ele>
        <time>2004-12-18T08:50:49Z</time>
      </trkpt>
      <trkpt lat="44.45892333984375" lon="11.2335205078125">
        <ele>346</ele>
        <time>2004-12-18T08:51:00Z</time>
      </trkpt>
      <trkpt lat="44.458708763122559" lon="11.233241641893983">
        <ele>348</ele>
        <time>2004-12-18T08:51:19Z</time>
      </trkpt>
      <trkpt lat="44.458644390106201" lon="11.233155727386475">
        <ele>352</ele>
        <time>2004-12-18T08:51:24Z</time>
      </trkpt>
      <trkpt lat="44.458622932434082" lon="11.233134269714355">
        <ele>352</ele>
        <time>2004-12-18T08:51:25Z</time>
      </trkpt>
      <trkpt lat="44.458537101745605" lon="11.232941234484315">
        <ele>357</ele>
        <time>2004-12-18T08:51:35Z</time>
      </trkpt>
      <trkpt lat="44.458515560254455" lon="11.232919692993164">
        <ele>358</ele>
        <time>2004-12-18T08:51:37Z</time>
      </trkpt>
      <trkpt lat="44.458515560254455" lon="11.232855319976807">
        <ele>356</ele>
        <time>2004-12-18T08:51:40Z</time>
      </trkpt>
      <trkpt lat="44.458537101745605" lon="11.232662200927734">
        <ele>358</ele>
        <time>2004-12-18T08:51:47Z</time>
      </trkpt>
      <trkpt lat="44.458708763122559" lon="11.23201847076416">
        <ele>362</ele>
        <time>2004-12-18T08:52:15Z</time>
      </trkpt>
      <trkpt lat="44.458708763122559" lon="11.231975639238954">
        <ele>363</ele>
        <time>2004-12-18T08:52:17Z</time>
      </trkpt>
      <trkpt lat="44.458858966827393" lon="11.231288909912109">
        <ele>366</ele>
        <time>2004-12-18T08:52:47Z</time>
      </trkpt>
      <trkpt lat="44.458858966827393" lon="11.231267536059022">
        <ele>366</ele>
        <time>2004-12-18T08:52:48Z</time>
      </trkpt>
      <trkpt lat="44.458901882171631" lon="11.230752468109131">
        <ele>369</ele>
        <time>2004-12-18T08:53:09Z</time>
      </trkpt>
      <trkpt lat="44.458858966827393" lon="11.230452060699463">
        <ele>370</ele>
        <time>2004-12-18T08:53:20Z</time>
      </trkpt>
      <trkpt lat="44.458837509155273" lon="11.230258941650391">
        <ele>372</ele>
        <time>2004-12-18T08:53:28Z</time>
      </trkpt>
      <trkpt lat="44.458816135302186" lon="11.230087280273438">
        <ele>375</ele>
        <time>2004-12-18T08:53:35Z</time>
      </trkpt>
      <trkpt lat="44.458816135302186" lon="11.23002290725708">
        <ele>376</ele>
        <time>2004-12-18T08:53:38Z</time>
      </trkpt>
      <trkpt lat="44.458751678466797" lon="11.22976541519165">
        <ele>379</ele>
        <time>2004-12-18T08:53:50Z</time>
      </trkpt>
      <trkpt lat="44.458730220794678" lon="11.229593837633729">
        <ele>380</ele>
        <time>2004-12-18T08:53:59Z</time>
      </trkpt>
      <trkpt lat="44.458730220794678" lon="11.229572296142578">
        <ele>382</ele>
        <time>2004-12-18T08:54:00Z</time>
      </trkpt>
      <trkpt lat="44.458837509155273" lon="11.229379177093506">
        <ele>381</ele>
        <time>2004-12-18T08:54:11Z</time>
      </trkpt>
      <trkpt lat="44.459137916564941" lon="11.22901439666748">
        <ele>381</ele>
        <time>2004-12-18T08:54:34Z</time>
      </trkpt>
      <trkpt lat="44.459245204925537" lon="11.228864192962646">
        <ele>383</ele>
        <time>2004-12-18T08:54:45Z</time>
      </trkpt>
      <trkpt lat="44.459352493286133" lon="11.228306293487549">
        <ele>383</ele>
        <time>2004-12-18T08:55:08Z</time>
      </trkpt>
      <trkpt lat="44.459309577941895" lon="11.227920139208436">
        <ele>386</ele>
        <time>2004-12-18T08:55:23Z</time>
      </trkpt>
      <trkpt lat="44.45918083190918" lon="11.227405071258545">
        <ele>388</ele>
        <time>2004-12-18T08:55:43Z</time>
      </trkpt>
      <trkpt lat="44.459030628204346" lon="11.22727632522583">
        <ele>392</ele>
        <time>2004-12-18T08:55:54Z</time>
      </trkpt>
      <trkpt lat="44.458794593811035" lon="11.227233409881592">
        <ele>394</ele>
        <time>2004-12-18T08:56:09Z</time>
      </trkpt>
      <trkpt lat="44.458773136138916" lon="11.227212036028504">
        <ele>395</ele>
        <time>2004-12-18T08:56:11Z</time>
      </trkpt>
      <trkpt lat="44.458537101745605" lon="11.227061664685607">
        <ele>399</ele>
        <time>2004-12-18T08:56:27Z</time>
      </trkpt>
      <trkpt lat="44.45842981338501" lon="11.226933002471924">
        <ele>401</ele>
        <time>2004-12-18T08:56:35Z</time>
      </trkpt>
      <trkpt lat="44.458258235827088" lon="11.226546764373779">
        <ele>405</ele>
        <time>2004-12-18T08:56:57Z</time>
      </trkpt>
      <trkpt lat="44.458150863647461" lon="11.226332187652588">
        <ele>408</ele>
        <time>2004-12-18T08:57:08Z</time>
      </trkpt>
      <trkpt lat="44.457957660779357" lon="11.226053237915039">
        <ele>411</ele>
        <time>2004-12-18T08:57:27Z</time>
      </trkpt>
      <trkpt lat="44.45767879486084" lon="11.225903034210205">
        <ele>412</ele>
        <time>2004-12-18T08:57:46Z</time>
      </trkpt>
      <trkpt lat="44.457485675811768" lon="11.225817203521729">
        <ele>413</ele>
        <time>2004-12-18T08:58:02Z</time>
      </trkpt>
      <trkpt lat="44.457442760467529" lon="11.225731372833252">
        <ele>417</ele>
        <time>2004-12-18T08:58:11Z</time>
      </trkpt>
      <trkpt lat="44.457399761304259" lon="11.225688541308045">
        <ele>414</ele>
        <time>2004-12-18T09:00:05Z</time>
      </trkpt>
      <trkpt lat="44.457442760467529" lon="11.225538337603211">
        <ele>416</ele>
        <time>2004-12-18T09:00:12Z</time>
      </trkpt>
      <trkpt lat="44.457507133483887" lon="11.22528076171875">
        <ele>413</ele>
        <time>2004-12-18T09:00:18Z</time>
      </trkpt>
      <trkpt lat="44.457528591156006" lon="11.22523776255548">
        <ele>413</ele>
        <time>2004-12-18T09:00:19Z</time>
      </trkpt>
      <trkpt lat="44.457528591156006" lon="11.224744319915771">
        <ele>413</ele>
        <time>2004-12-18T09:00:31Z</time>
      </trkpt>
      <trkpt lat="44.457206726074219" lon="11.224057674407959">
        <ele>412</ele>
        <time>2004-12-18T09:00:50Z</time>
      </trkpt>
      <trkpt lat="44.45692777633667" lon="11.223714435473084">
        <ele>413</ele>
        <time>2004-12-18T09:01:05Z</time>
      </trkpt>
      <trkpt lat="44.456584537401795" lon="11.22352123260498">
        <ele>411</ele>
        <time>2004-12-18T09:01:22Z</time>
      </trkpt>
      <trkpt lat="44.456455707550049" lon="11.223456859588623">
        <ele>415</ele>
        <time>2004-12-18T09:01:30Z</time>
      </trkpt>
      <trkpt lat="44.456412792205811" lon="11.223392486572266">
        <ele>413</ele>
        <time>2004-12-18T09:01:37Z</time>
      </trkpt>
      <trkpt lat="44.456369876861572" lon="11.223349571228027">
        <ele>414</ele>
        <time>2004-12-18T09:01:41Z</time>
      </trkpt>
      <trkpt lat="44.456326961517334" lon="11.223349571228027">
        <ele>415</ele>
        <time>2004-12-18T09:01:43Z</time>
      </trkpt>
      <trkpt lat="44.455983638763428" lon="11.223134994506836">
        <ele>415</ele>
        <time>2004-12-18T09:02:01Z</time>
      </trkpt>
      <trkpt lat="44.455940723419189" lon="11.223070621490479">
        <ele>416</ele>
        <time>2004-12-18T09:02:06Z</time>
      </trkpt>
      <trkpt lat="44.455854892730713" lon="11.222920417785645">
        <ele>417</ele>
        <time>2004-12-18T09:02:19Z</time>
      </trkpt>
      <trkpt lat="44.455811977386475" lon="11.222705841064453">
        <ele>411</ele>
        <time>2004-12-18T09:02:26Z</time>
      </trkpt>
      <trkpt lat="44.455854892730713" lon="11.2225341796875">
        <ele>407</ele>
        <time>2004-12-18T09:02:33Z</time>
      </trkpt>
      <trkpt lat="44.455854892730713" lon="11.2225341796875">
        <ele>408</ele>
        <time>2004-12-18T09:02:34Z</time>
      </trkpt>
      <trkpt lat="44.455833435058594" lon="11.222512722015381">
        <ele>407</ele>
        <time>2004-12-18T09:02:37Z</time>
      </trkpt>
      <trkpt lat="44.455726062878966" lon="11.222405433654785">
        <ele>403</ele>
        <time>2004-12-18T09:02:42Z</time>
      </trkpt>
      <trkpt lat="44.455704689025879" lon="11.222383975982666">
        <ele>399</ele>
        <time>2004-12-18T09:02:44Z</time>
      </trkpt>
      <trkpt lat="44.45568323135376" lon="11.222383975982666">
        <ele>398</ele>
        <time>2004-12-18T09:02:45Z</time>
      </trkpt>
      <trkpt lat="44.455533027648926" lon="11.222426891326904">
        <ele>394</ele>
        <time>2004-12-18T09:02:54Z</time>
      </trkpt>
      <trkpt lat="44.455511569976807" lon="11.222448265179992">
        <ele>394</ele>
        <time>2004-12-18T09:02:56Z</time>
      </trkpt>
      <trkpt lat="44.455382823944092" lon="11.222748840227723">
        <ele>390</ele>
        <time>2004-12-18T09:03:09Z</time>
      </trkpt>
      <trkpt lat="44.455361366271973" lon="11.22279167175293">
        <ele>389</ele>
        <time>2004-12-18T09:03:10Z</time>
      </trkpt>
      <trkpt lat="44.455296993255615" lon="11.222898960113525">
        <ele>386</ele>
        <time>2004-12-18T09:03:18Z</time>
      </trkpt>
      <trkpt lat="44.455296993255615" lon="11.222941875457764">
        <ele>388</ele>
        <time>2004-12-18T09:03:23Z</time>
      </trkpt>
      <trkpt lat="44.455275535583496" lon="11.22302770614624">
        <ele>385</ele>
        <time>2004-12-18T09:03:28Z</time>
      </trkpt>
      <trkpt lat="44.455275535583496" lon="11.223049163818359">
        <ele>385</ele>
        <time>2004-12-18T09:03:29Z</time>
      </trkpt>
      <trkpt lat="44.455232620239258" lon="11.22302770614624">
        <ele>383</ele>
        <time>2004-12-18T09:03:39Z</time>
      </trkpt>
      <trkpt lat="44.455198086798191" lon="11.223006835207343">
        <ele>385</ele>
        <time>2004-12-18T09:03:32Z</time>
      </trkpt>
      <trkpt lat="44.455114938318729" lon="11.222827127203345">
        <ele>385</ele>
        <time>2004-12-18T09:04:52Z</time>
      </trkpt>
      <trkpt lat="44.455147124826908" lon="11.222738614305854">
        <ele>385</ele>
        <time>2004-12-18T09:04:54Z</time>
      </trkpt>
      <trkpt lat="44.455233039334416" lon="11.222046604380012">
        <ele>388</ele>
        <time>2004-12-18T09:05:05Z</time>
      </trkpt>
      <trkpt lat="44.455227591097355" lon="11.22196882031858">
        <ele>388</ele>
        <time>2004-12-18T09:05:06Z</time>
      </trkpt>
      <trkpt lat="44.455173779278994" lon="11.221640836447477">
        <ele>388</ele>
        <time>2004-12-18T09:05:10Z</time>
      </trkpt>
      <trkpt lat="44.455155003815889" lon="11.221557604148984">
        <ele>388</ele>
        <time>2004-12-18T09:05:11Z</time>
      </trkpt>
      <trkpt lat="44.455130863934755" lon="11.221477137878537">
        <ele>390</ele>
        <time>2004-12-18T09:05:12Z</time>
      </trkpt>
      <trkpt lat="44.455101359635592" lon="11.221415363252163">
        <ele>390</ele>
        <time>2004-12-18T09:05:14Z</time>
      </trkpt>
      <trkpt lat="44.455090630799532" lon="11.221399437636137">
        <ele>390</ele>
        <time>2004-12-18T09:05:15Z</time>
      </trkpt>
      <trkpt lat="44.455031622201204" lon="11.221359120681882">
        <ele>390</ele>
        <time>2004-12-18T09:05:18Z</time>
      </trkpt>
      <trkpt lat="44.455010164529085" lon="11.221348391845822">
        <ele>390</ele>
        <time>2004-12-18T09:05:21Z</time>
      </trkpt>
      <trkpt lat="44.454999435693026" lon="11.221348391845822">
        <ele>390</ele>
        <time>2004-12-18T09:05:22Z</time>
      </trkpt>
      <trkpt lat="44.454784858971834" lon="11.221305476501584">
        <ele>390</ele>
        <time>2004-12-18T09:06:06Z</time>
      </trkpt>
      <trkpt lat="44.454755438491702" lon="11.22127060778439">
        <ele>392</ele>
        <time>2004-12-18T09:06:09Z</time>
      </trkpt>
      <trkpt lat="44.454551506787539" lon="11.221158038824797">
        <ele>392</ele>
        <time>2004-12-18T09:06:49Z</time>
      </trkpt>
      <trkpt lat="44.454422760754824" lon="11.221058713272214">
        <ele>395</ele>
        <time>2004-12-18T09:07:17Z</time>
      </trkpt>
      <trkpt lat="44.454417396336794" lon="11.220935331657529">
        <ele>390</ele>
        <time>2004-12-18T09:07:24Z</time>
      </trkpt>
      <trkpt lat="44.454330559819937" lon="11.220712037757039">
        <ele>392</ele>
        <time>2004-12-18T09:09:22Z</time>
      </trkpt>
      <trkpt lat="44.454217990860343" lon="11.220679935067892">
        <ele>390</ele>
        <time>2004-12-18T09:09:30Z</time>
      </trkpt>
      <trkpt lat="44.454199215397239" lon="11.220679935067892">
        <ele>390</ele>
        <time>2004-12-18T09:09:31Z</time>
      </trkpt>
      <trkpt lat="44.453888079151511" lon="11.220497461035848">
        <ele>388</ele>
        <time>2004-12-18T09:09:49Z</time>
      </trkpt>
      <trkpt lat="44.453566214069724" lon="11.220207782462239">
        <ele>385</ele>
        <time>2004-12-18T09:09:50Z</time>
      </trkpt>
      <trkpt lat="44.453228004276752" lon="11.22045798227191">
        <ele>385</ele>
        <time>1989-12-31T00:00:00Z</time>
      </trkpt>
      <trkpt lat="44.453084589913487" lon="11.220398722216487">
        <ele>388</ele>
        <time>2004-12-18T09:12:26Z</time>
      </trkpt>
      <trkpt lat="44.45259366184473" lon="11.220278022810817">
        <ele>386</ele>
        <time>2004-12-18T09:12:54Z</time>
      </trkpt>
      <trkpt lat="44.452266516163945" lon="11.220015166327357">
        <ele>384</ele>
        <time>2004-12-18T09:13:07Z</time>
      </trkpt>
      <trkpt lat="44.452204825356603" lon="11.219958839938045">
        <ele>383</ele>
        <time>2004-12-18T09:13:09Z</time>
      </trkpt>
      <trkpt lat="44.452172638848424" lon="11.219932017847896">
        <ele>383</ele>
        <time>2004-12-18T09:13:10Z</time>
      </trkpt>
      <trkpt lat="44.45213777013123" lon="11.219907877966762">
        <ele>382</ele>
        <time>2004-12-18T09:13:11Z</time>
      </trkpt>
      <trkpt lat="44.451394798234105" lon="11.219352660700679">
        <ele>375</ele>
        <time>2004-12-18T09:13:36Z</time>
      </trkpt>
      <trkpt lat="44.451148035004735" lon="11.219215868040919">
        <ele>373</ele>
        <time>2004-12-18T09:13:45Z</time>
      </trkpt>
      <trkpt lat="44.451083661988378" lon="11.2191944103688">
        <ele>371</ele>
        <time>2004-12-18T09:13:48Z</time>
      </trkpt>
      <trkpt lat="44.450866403058171" lon="11.219097934663296">
        <ele>370</ele>
        <time>2004-12-18T09:13:55Z</time>
      </trkpt>
      <trkpt lat="44.450812758877873" lon="11.219081841409206">
        <ele>370</ele>
        <time>2004-12-18T09:13:57Z</time>
      </trkpt>
      <trkpt lat="44.450747463852167" lon="11.219051834195852">
        <ele>370</ele>
        <time>2004-12-18T09:13:59Z</time>
      </trkpt>
      <trkpt lat="44.450715277343988" lon="11.219032974913716">
        <ele>370</ele>
        <time>2004-12-18T09:14:00Z</time>
      </trkpt>
      <trkpt lat="44.450599858537316" lon="11.218955190852284">
        <ele>373</ele>
        <time>2004-12-18T09:14:04Z</time>
      </trkpt>
      <trkpt lat="44.450538335368037" lon="11.218906911090016">
        <ele>375</ele>
        <time>2004-12-18T09:14:06Z</time>
      </trkpt>
      <trkpt lat="44.449773821979761" lon="11.217981465160847">
        <ele>377</ele>
        <time>2004-12-18T09:14:31Z</time>
      </trkpt>
      <trkpt lat="44.44943318143487" lon="11.217745514586568">
        <ele>380</ele>
        <time>2004-12-18T09:14:36Z</time>
      </trkpt>
      <trkpt lat="44.448572192341089" lon="11.217501433566213">
        <ele>382</ele>
        <time>2004-12-18T09:14:49Z</time>
      </trkpt>
      <trkpt lat="44.448172459378839" lon="11.217278810217977">
        <ele>382</ele>
        <time>2004-12-18T09:14:56Z</time>
      </trkpt>
      <trkpt lat="44.448102805763483" lon="11.217238577082753">
        <ele>382</ele>
        <time>2004-12-18T09:14:57Z</time>
      </trkpt>
      <trkpt lat="44.447324965149164" lon="11.216777237132192">
        <ele>370</ele>
        <time>2004-12-18T09:15:10Z</time>
      </trkpt>
      <trkpt lat="44.447281965985894" lon="11.216737003996968">
        <ele>365</ele>
        <time>2004-12-18T09:15:11Z</time>
      </trkpt>
      <trkpt lat="44.446785841137171" lon="11.216340037062764">
        <ele>355</ele>
        <time>2004-12-18T09:15:23Z</time>
      </trkpt>
      <trkpt lat="44.446750972419977" lon="11.216297121718526">
        <ele>355</ele>
        <time>2004-12-18T09:15:24Z</time>
      </trkpt>
      <trkpt lat="44.44606700912118" lon="11.215739222243428">
        <ele>350</ele>
        <time>2004-12-18T09:15:49Z</time>
      </trkpt>
      <trkpt lat="44.445231081917882" lon="11.215243935585022">
        <ele>348</ele>
        <time>2004-12-18T09:16:16Z</time>
      </trkpt>
      <trkpt lat="44.444657089188695" lon="11.214385461062193">
        <ele>345</ele>
        <time>2004-12-18T09:16:34Z</time>
      </trkpt>
      <trkpt lat="44.44452297873795" lon="11.214318489655852">
        <ele>345</ele>
        <time>2004-12-18T09:16:36Z</time>
      </trkpt>
      <trkpt lat="44.443812193349004" lon="11.213766038417816">
        <ele>344</ele>
        <time>2004-12-18T09:16:48Z</time>
      </trkpt>
      <trkpt lat="44.443758465349674" lon="11.213666712865233">
        <ele>342</ele>
        <time>2004-12-18T09:16:49Z</time>
      </trkpt>
      <trkpt lat="44.443310620263219" lon="11.212494587525725">
        <ele>336</ele>
        <time>2004-12-18T09:17:01Z</time>
      </trkpt>
      <trkpt lat="44.443340124562383" lon="11.212011789903045">
        <ele>335</ele>
        <time>2004-12-18T09:17:06Z</time>
      </trkpt>
      <trkpt lat="44.443552019074559" lon="11.210901439189911">
        <ele>336</ele>
        <time>2004-12-18T09:17:18Z</time>
      </trkpt>
      <trkpt lat="44.443570794537663" lon="11.210845028981566">
        <ele>330</ele>
        <time>2004-12-18T09:17:19Z</time>
      </trkpt>
      <trkpt lat="44.443755866959691" lon="11.210308587178588">
        <ele>325</ele>
        <time>2004-12-18T09:17:28Z</time>
      </trkpt>
      <trkpt lat="44.443788137286901" lon="11.210238765925169">
        <ele>323</ele>
        <time>2004-12-18T09:17:29Z</time>
      </trkpt>
      <trkpt lat="44.443943621590734" lon="11.209967862814665">
        <ele>322</ele>
        <time>2004-12-18T09:17:33Z</time>
      </trkpt>
      <trkpt lat="44.443997265771031" lon="11.209528064355254">
        <ele>322</ele>
        <time>2004-12-18T09:17:38Z</time>
      </trkpt>
      <trkpt lat="44.444050909951329" lon="11.208967482671142">
        <ele>322</ele>
        <time>2004-12-18T09:17:44Z</time>
      </trkpt>
      <trkpt lat="44.444269761443138" lon="11.208725832402706">
        <ele>322</ele>
        <time>2004-12-18T09:17:49Z</time>
      </trkpt>
      <trkpt lat="44.444629177451134" lon="11.208495162427425">
        <ele>324</ele>
        <time>2004-12-18T09:17:56Z</time>
      </trkpt>
      <trkpt lat="44.444709559902549" lon="11.208433471620083">
        <ele>320</ele>
        <time>2004-12-18T09:17:57Z</time>
      </trkpt>
      <trkpt lat="44.444795474410057" lon="11.208363734185696">
        <ele>318</ele>
        <time>2004-12-18T09:17:58Z</time>
      </trkpt>
      <trkpt lat="44.444999322295189" lon="11.208165334537625">
        <ele>318</ele>
        <time>2004-12-18T09:18:01Z</time>
      </trkpt>
      <trkpt lat="44.445066377520561" lon="11.208103559911251">
        <ele>318</ele>
        <time>2004-12-18T09:18:02Z</time>
      </trkpt>
      <trkpt lat="44.445170983672142" lon="11.208066008985043">
        <ele>316</ele>
        <time>2004-12-18T09:18:03Z</time>
      </trkpt>
      <trkpt lat="44.44546602666378" lon="11.207953440025449">
        <ele>310</ele>
        <time>2004-12-18T09:18:07Z</time>
      </trkpt>
      <trkpt lat="44.445546492934227" lon="11.207907758653164">
        <ele>308</ele>
        <time>2004-12-18T09:18:08Z</time>
      </trkpt>
      <trkpt lat="44.445621594786644" lon="11.207862161099911">
        <ele>305</ele>
        <time>2004-12-18T09:18:09Z</time>
      </trkpt>
      <trkpt lat="44.445680603384972" lon="11.207811199128628">
        <ele>306</ele>
        <time>2004-12-18T09:18:10Z</time>
      </trkpt>
      <trkpt lat="44.445822760462761" lon="11.207703910768032">
        <ele>308</ele>
        <time>2004-12-18T09:18:14Z</time>
      </trkpt>
      <trkpt lat="44.445935832336545" lon="11.207572482526302">
        <ele>310</ele>
        <time>2004-12-18T09:18:21Z</time>
      </trkpt>
      <trkpt lat="44.446308659389615" lon="11.207274841144681">
        <ele>310</ele>
        <time>2004-12-18T09:18:40Z</time>
      </trkpt>
      <trkpt lat="44.446327434852719" lon="11.207156740128994">
        <ele>311</ele>
        <time>2004-12-18T09:18:42Z</time>
      </trkpt>
      <trkpt lat="44.446418629959226" lon="11.207014583051205">
        <ele>312</ele>
        <time>2004-12-18T09:18:45Z</time>
      </trkpt>
      <trkpt lat="44.4464320410043" lon="11.20687510818243">
        <ele>312</ele>
        <time>2004-12-18T09:18:50Z</time>
      </trkpt>
      <trkpt lat="44.446458863094449" lon="11.206829510629177">
        <ele>312</ele>
        <time>2004-12-18T09:18:52Z</time>
      </trkpt>
      <trkpt lat="44.446584926918149" lon="11.206805370748043">
        <ele>312</ele>
        <time>2004-12-18T09:18:58Z</time>
      </trkpt>
      <trkpt lat="44.447024809196591" lon="11.206770502030849">
        <ele>312</ele>
        <time>2004-12-18T09:19:17Z</time>
      </trkpt>
      <trkpt lat="44.447081135585904" lon="11.206719540059566">
        <ele>313</ele>
        <time>2004-12-18T09:19:21Z</time>
      </trkpt>
      <trkpt lat="44.447121368721128" lon="11.206698082387447">
        <ele>313</ele>
        <time>2004-12-18T09:19:23Z</time>
      </trkpt>
      <trkpt lat="44.447234021499753" lon="11.206657765433192">
        <ele>313</ele>
        <time>2004-12-18T09:19:27Z</time>
      </trkpt>
      <trkpt lat="44.447255562990904" lon="11.20665717869997">
        <ele>313</ele>
        <time>2004-12-18T09:19:28Z</time>
      </trkpt>
      <trkpt lat="44.447277104482055" lon="11.206659860908985">
        <ele>313</ele>
        <time>2004-12-18T09:19:29Z</time>
      </trkpt>
      <trkpt lat="44.447328066453338" lon="11.206662459298968">
        <ele>313</ele>
        <time>2004-12-18T09:19:31Z</time>
      </trkpt>
      <trkpt lat="44.447429990395904" lon="11.206616861745715">
        <ele>313</ele>
        <time>2004-12-18T09:19:39Z</time>
      </trkpt>
      <trkpt lat="44.447459494695067" lon="11.206603534519672">
        <ele>313</ele>
        <time>2004-12-18T09:19:41Z</time>
      </trkpt>
      <trkpt lat="44.447746491059661" lon="11.206206567585468">
        <ele>314</ele>
        <time>2004-12-18T09:20:02Z</time>
      </trkpt>
      <trkpt lat="44.447759902104735" lon="11.20617438107729">
        <ele>314</ele>
        <time>2004-12-18T09:20:04Z</time>
      </trkpt>
      <trkpt lat="44.447832321748137" lon="11.20554942637682">
        <ele>314</ele>
        <time>2004-12-18T09:20:30Z</time>
      </trkpt>
      <trkpt lat="44.447926199063659" lon="11.205479688942432">
        <ele>314</ele>
        <time>2004-12-18T09:20:36Z</time>
      </trkpt>
      <trkpt lat="44.448296260088682" lon="11.204822463914752">
        <ele>300</ele>
        <time>2004-12-18T09:21:20Z</time>
      </trkpt>
      <trkpt lat="44.448387622833252" lon="11.204638481140137">
        <ele>291</ele>
        <time>2004-12-18T09:23:51Z</time>
      </trkpt>
      <trkpt lat="44.448387622833252" lon="11.204574108123779">
        <ele>291</ele>
        <time>2004-12-18T09:23:52Z</time>
      </trkpt>
      <trkpt lat="44.448387622833252" lon="11.204230785369873">
        <ele>292</ele>
        <time>2004-12-18T09:23:57Z</time>
      </trkpt>
      <trkpt lat="44.448366165161133" lon="11.204037666320801">
        <ele>290</ele>
        <time>2004-12-18T09:24:00Z</time>
      </trkpt>
      <trkpt lat="44.448366165161133" lon="11.203737258911133">
        <ele>287</ele>
        <time>2004-12-18T09:24:04Z</time>
      </trkpt>
      <trkpt lat="44.448387622833252" lon="11.203372478485107">
        <ele>283</ele>
        <time>2004-12-18T09:24:09Z</time>
      </trkpt>
      <trkpt lat="44.448409080505371" lon="11.203114986419678">
        <ele>281</ele>
        <time>2004-12-18T09:24:13Z</time>
      </trkpt>
      <trkpt lat="44.44843053817749" lon="11.20281457901001">
        <ele>282</ele>
        <time>2004-12-18T09:24:18Z</time>
      </trkpt>
      <trkpt lat="44.448215961456299" lon="11.202428340911865">
        <ele>283</ele>
        <time>2004-12-18T09:24:27Z</time>
      </trkpt>
      <trkpt lat="44.448108673095703" lon="11.202213764190674">
        <ele>283</ele>
        <time>2004-12-18T09:24:34Z</time>
      </trkpt>
      <trkpt lat="44.44793701171875" lon="11.20202056132257">
        <ele>280</ele>
        <time>2004-12-18T09:24:38Z</time>
      </trkpt>
      <trkpt lat="44.447786808013916" lon="11.201741695404053">
        <ele>277</ele>
        <time>2004-12-18T09:24:44Z</time>
      </trkpt>
      <trkpt lat="44.447743892669678" lon="11.201698780059814">
        <ele>276</ele>
        <time>2004-12-18T09:24:45Z</time>
      </trkpt>
      <trkpt lat="44.447658061981201" lon="11.201591491699219">
        <ele>274</ele>
        <time>2004-12-18T09:24:48Z</time>
      </trkpt>
      <trkpt lat="44.447550773620605" lon="11.201484203338623">
        <ele>272</ele>
        <time>2004-12-18T09:24:51Z</time>
      </trkpt>
      <trkpt lat="44.447293281555176" lon="11.201226711273193">
        <ele>270</ele>
        <time>2004-12-18T09:25:00Z</time>
      </trkpt>
      <trkpt lat="44.44694995880127" lon="11.201033592224121">
        <ele>267</ele>
        <time>2004-12-18T09:25:10Z</time>
      </trkpt>
      <trkpt lat="44.446864128112793" lon="11.200990676879883">
        <ele>264</ele>
        <time>2004-12-18T09:25:15Z</time>
      </trkpt>
      <trkpt lat="44.446628093719482" lon="11.200904762372375">
        <ele>260</ele>
        <time>2004-12-18T09:25:26Z</time>
      </trkpt>
      <trkpt lat="44.446563720703125" lon="11.200883388519287">
        <ele>258</ele>
        <time>2004-12-18T09:25:29Z</time>
      </trkpt>
      <trkpt lat="44.446499263867736" lon="11.200861930847168">
        <ele>255</ele>
        <time>2004-12-18T09:25:33Z</time>
      </trkpt>
      <trkpt lat="44.446499263867736" lon="11.200883388519287">
        <ele>253</ele>
        <time>2004-12-18T09:25:49Z</time>
      </trkpt>
      <trkpt lat="44.446413516998291" lon="11.200861930847168">
        <ele>251</ele>
        <time>2004-12-18T09:26:03Z</time>
      </trkpt>
      <trkpt lat="44.446392059326172" lon="11.200904762372375">
        <ele>249</ele>
        <time>2004-12-18T09:26:06Z</time>
      </trkpt>
      <trkpt lat="44.446456432342529" lon="11.201033592224121">
        <ele>246</ele>
        <time>2004-12-18T09:26:15Z</time>
      </trkpt>
      <trkpt lat="44.446499263867736" lon="11.201076507568359">
        <ele>243</ele>
        <time>2004-12-18T09:26:19Z</time>
      </trkpt>
      <trkpt lat="44.446520805358887" lon="11.201140880584717">
        <ele>241</ele>
        <time>2004-12-18T09:26:26Z</time>
      </trkpt>
      <trkpt lat="44.446520805358887" lon="11.201248168945313">
        <ele>239</ele>
        <time>2004-12-18T09:26:40Z</time>
      </trkpt>
      <trkpt lat="44.446520805358887" lon="11.201312458142638">
        <ele>236</ele>
        <time>2004-12-18T09:26:44Z</time>
      </trkpt>
      <trkpt lat="44.446499263867736" lon="11.20135554112494">
        <ele>233</ele>
        <time>2004-12-18T09:26:46Z</time>
      </trkpt>
      <trkpt lat="44.446477890014648" lon="11.201376914978027">
        <ele>232</ele>
        <time>2004-12-18T09:26:47Z</time>
      </trkpt>
      <trkpt lat="44.446477890014648" lon="11.201376914978027">
        <ele>232</ele>
        <time>2004-12-18T09:26:48Z</time>
      </trkpt>
      <trkpt lat="44.446413516998291" lon="11.201398372650146">
        <ele>230</ele>
        <time>2004-12-18T09:26:59Z</time>
      </trkpt>
      <trkpt lat="44.446413516998291" lon="11.201484203338623">
        <ele>228</ele>
        <time>2004-12-18T09:27:20Z</time>
      </trkpt>
      <trkpt lat="44.44624193944037" lon="11.201527118682861">
        <ele>225</ele>
        <time>2004-12-18T09:28:12Z</time>
      </trkpt>
      <trkpt lat="44.446220397949219" lon="11.201591491699219">
        <ele>223</ele>
        <time>2004-12-18T09:28:15Z</time>
      </trkpt>
      <trkpt lat="44.4461989402771" lon="11.201591491699219">
        <ele>223</ele>
        <time>2004-12-18T09:28:16Z</time>
      </trkpt>
      <trkpt lat="44.446220397949219" lon="11.201634407043457">
        <ele>221</ele>
        <time>2004-12-18T09:28:19Z</time>
      </trkpt>
      <trkpt lat="44.44624193944037" lon="11.201655864715576">
        <ele>220</ele>
        <time>2004-12-18T09:28:37Z</time>
      </trkpt>
      <trkpt lat="44.446284770965576" lon="11.201720237731934">
        <ele>217</ele>
        <time>2004-12-18T09:28:51Z</time>
      </trkpt>
      <trkpt lat="44.446306228637695" lon="11.201720237731934">
        <ele>217</ele>
        <time>2004-12-18T09:28:52Z</time>
      </trkpt>
      <trkpt lat="44.446306228637695" lon="11.201763236895204">
        <ele>215</ele>
        <time>2004-12-18T09:28:55Z</time>
      </trkpt>
      <trkpt lat="44.4461989402771" lon="11.201827526092529">
        <ele>215</ele>
        <time>2004-12-18T09:28:58Z</time>
      </trkpt>
      <trkpt lat="44.446134567260742" lon="11.201848983764648">
        <ele>213</ele>
        <time>2004-12-18T09:29:00Z</time>
      </trkpt>
      <trkpt lat="44.446048736572266" lon="11.201934814453125">
        <ele>207</ele>
        <time>2004-12-18T09:29:03Z</time>
      </trkpt>
      <trkpt lat="44.446048736572266" lon="11.201956272125244">
        <ele>207</ele>
        <time>2004-12-18T09:29:04Z</time>
      </trkpt>
      <trkpt lat="44.446027278900146" lon="11.201999187469482">
        <ele>202</ele>
        <time>2004-12-18T09:29:05Z</time>
      </trkpt>
      <trkpt lat="44.446005821228027" lon="11.202042102813721">
        <ele>202</ele>
        <time>2004-12-18T09:29:06Z</time>
      </trkpt>
      <trkpt lat="44.445962905883789" lon="11.202127933502197">
        <ele>199</ele>
        <time>2004-12-18T09:29:08Z</time>
      </trkpt>
      <trkpt lat="44.445941364392638" lon="11.202149391174316">
        <ele>199</ele>
        <time>2004-12-18T09:29:09Z</time>
      </trkpt>
      <trkpt lat="44.445748329162598" lon="11.202278137207031">
        <ele>197</ele>
        <time>2004-12-18T09:29:38Z</time>
      </trkpt>
      <trkpt lat="44.445705413818359" lon="11.202235221862793">
        <ele>194</ele>
        <time>2004-12-18T09:30:15Z</time>
      </trkpt>
      <trkpt lat="44.445598125457764" lon="11.202213764190674">
        <ele>195</ele>
        <time>2004-12-18T09:30:26Z</time>
      </trkpt>
      <trkpt lat="44.445555210113525" lon="11.202213764190674">
        <ele>195</ele>
        <time>2004-12-18T09:30:39Z</time>
      </trkpt>
      <trkpt lat="44.445512294769287" lon="11.202235221862793">
        <ele>197</ele>
        <time>2004-12-18T09:30:50Z</time>
      </trkpt>
      <trkpt lat="44.445469379425049" lon="11.202321136370301">
        <ele>196</ele>
        <time>2004-12-18T09:31:04Z</time>
      </trkpt>
      <trkpt lat="44.44544792175293" lon="11.20229959487915">
        <ele>197</ele>
        <time>2004-12-18T09:31:06Z</time>
      </trkpt>
      <trkpt lat="44.445426464080811" lon="11.20229959487915">
        <ele>194</ele>
        <time>2004-12-18T09:31:20Z</time>
      </trkpt>
      <trkpt lat="44.445405006408691" lon="11.20229959487915">
        <ele>191</ele>
        <time>2004-12-18T09:31:21Z</time>
      </trkpt>
      <trkpt lat="44.445362091064453" lon="11.202321136370301">
        <ele>193</ele>
        <time>2004-12-18T09:31:33Z</time>
      </trkpt>
      <trkpt lat="44.445276260375977" lon="11.202471340075135">
        <ele>195</ele>
        <time>2004-12-18T09:31:46Z</time>
      </trkpt>
      <trkpt lat="44.4451904296875" lon="11.202600002288818">
        <ele>196</ele>
        <time>2004-12-18T09:31:59Z</time>
      </trkpt>
      <trkpt lat="44.4451904296875" lon="11.202621459960938">
        <ele>196</ele>
        <time>2004-12-18T09:32:06Z</time>
      </trkpt>
      <trkpt lat="44.445126140490174" lon="11.202728664502501">
        <ele>198</ele>
        <time>2004-12-18T09:32:19Z</time>
      </trkpt>
      <trkpt lat="44.445126140490174" lon="11.202771663665771">
        <ele>199</ele>
        <time>2004-12-18T09:32:22Z</time>
      </trkpt>
      <trkpt lat="44.445083141326904" lon="11.202836036682129">
        <ele>197</ele>
        <time>2004-12-18T09:32:34Z</time>
      </trkpt>
      <trkpt lat="44.445061683654785" lon="11.202879035845399">
        <ele>200</ele>
        <time>2004-12-18T09:32:41Z</time>
      </trkpt>
      <trkpt lat="44.445061683654785" lon="11.202943325042725">
        <ele>199</ele>
        <time>2004-12-18T09:32:53Z</time>
      </trkpt>
      <trkpt lat="44.444847106933594" lon="11.203114986419678">
        <ele>200</ele>
        <time>2004-12-18T09:33:08Z</time>
      </trkpt>
      <trkpt lat="44.444782733917236" lon="11.203136360272765">
        <ele>203</ele>
        <time>2004-12-18T09:33:11Z</time>
      </trkpt>
      <trkpt lat="44.444675361737609" lon="11.203179359436035">
        <ele>202</ele>
        <time>2004-12-18T09:33:14Z</time>
      </trkpt>
      <trkpt lat="44.444525241851807" lon="11.203200817108154">
        <ele>197</ele>
        <time>2004-12-18T09:33:18Z</time>
      </trkpt>
      <trkpt lat="44.444482326507568" lon="11.203200817108154">
        <ele>195</ele>
        <time>2004-12-18T09:33:20Z</time>
      </trkpt>
      <trkpt lat="44.444396495819092" lon="11.203200817108154">
        <ele>193</ele>
        <time>2004-12-18T09:33:23Z</time>
      </trkpt>
      <trkpt lat="44.444310665130615" lon="11.203243732452393">
        <ele>190</ele>
        <time>2004-12-18T09:33:26Z</time>
      </trkpt>
      <trkpt lat="44.444289207458496" lon="11.203265190124512">
        <ele>190</ele>
        <time>2004-12-18T09:33:27Z</time>
      </trkpt>
      <trkpt lat="44.44420337677002" lon="11.203136360272765">
        <ele>188</ele>
        <time>2004-12-18T09:33:38Z</time>
      </trkpt>
      <trkpt lat="44.44420337677002" lon="11.203136360272765">
        <ele>187</ele>
        <time>2004-12-18T09:33:40Z</time>
      </trkpt>
      <trkpt lat="44.444160461425781" lon="11.203136360272765">
        <ele>187</ele>
        <time>2004-12-18T09:33:54Z</time>
      </trkpt>
      <trkpt lat="44.444160461425781" lon="11.203157901763916">
        <ele>185</ele>
        <time>2004-12-18T09:33:57Z</time>
      </trkpt>
      <trkpt lat="44.444160461425781" lon="11.203157901763916">
        <ele>186</ele>
        <time>2004-12-18T09:34:34Z</time>
      </trkpt>
      <trkpt lat="44.443988800048828" lon="11.203114986419678">
        <ele>186</ele>
        <time>2004-12-18T09:34:48Z</time>
      </trkpt>
      <trkpt lat="44.443881511688232" lon="11.203136360272765">
        <ele>186</ele>
        <time>2004-12-18T09:35:01Z</time>
      </trkpt>
      <trkpt lat="44.443860137835145" lon="11.203114986419678">
        <ele>185</ele>
        <time>2004-12-18T09:35:31Z</time>
      </trkpt>
      <trkpt lat="44.443860137835145" lon="11.203114986419678">
        <ele>185</ele>
        <time>2004-12-18T09:35:32Z</time>
      </trkpt>
      <trkpt lat="44.443817138671875" lon="11.203029239550233">
        <ele>183</ele>
        <time>2004-12-18T09:35:38Z</time>
      </trkpt>
      <trkpt lat="44.443752765655518" lon="11.202964782714844">
        <ele>179</ele>
        <time>2004-12-18T09:35:43Z</time>
      </trkpt>
      <trkpt lat="44.44368839263916" lon="11.202921867370605">
        <ele>177</ele>
        <time>2004-12-18T09:35:49Z</time>
      </trkpt>
      <trkpt lat="44.443581104278564" lon="11.202750205993652">
        <ele>174</ele>
        <time>2004-12-18T09:36:00Z</time>
      </trkpt>
      <trkpt lat="44.443581104278564" lon="11.202707290649414">
        <ele>174</ele>
        <time>2004-12-18T09:36:01Z</time>
      </trkpt>
      <trkpt lat="44.443559562787414" lon="11.202600002288818">
        <ele>171</ele>
        <time>2004-12-18T09:36:05Z</time>
      </trkpt>
      <trkpt lat="44.443559562787414" lon="11.202492713928223">
        <ele>167</ele>
        <time>2004-12-18T09:36:09Z</time>
      </trkpt>
      <trkpt lat="44.443559562787414" lon="11.202449798583984">
        <ele>167</ele>
        <time>2004-12-18T09:36:10Z</time>
      </trkpt>
      <trkpt lat="44.443581104278564" lon="11.202321136370301">
        <ele>164</ele>
        <time>2004-12-18T09:36:15Z</time>
      </trkpt>
      <trkpt lat="44.443559562787414" lon="11.20229959487915">
        <ele>164</ele>
        <time>2004-12-18T09:36:16Z</time>
      </trkpt>
      <trkpt lat="44.44340935908258" lon="11.202106475830078">
        <ele>166</ele>
        <time>2004-12-18T09:36:27Z</time>
      </trkpt>
      <trkpt lat="44.443366527557373" lon="11.201913440600038">
        <ele>162</ele>
        <time>2004-12-18T09:37:55Z</time>
      </trkpt>
      <trkpt lat="44.443152034655213" lon="11.201720237731934">
        <ele>158</ele>
        <time>2004-12-18T09:38:00Z</time>
      </trkpt>
      <trkpt lat="44.443087577819824" lon="11.201655864715576">
        <ele>158</ele>
        <time>2004-12-18T09:38:01Z</time>
      </trkpt>
      <trkpt lat="44.442958831787109" lon="11.201484203338623">
        <ele>155</ele>
        <time>2004-12-18T09:38:04Z</time>
      </trkpt>
      <trkpt lat="44.442915916442871" lon="11.201419830322266">
        <ele>155</ele>
        <time>2004-12-18T09:38:05Z</time>
      </trkpt>
      <trkpt lat="44.442808628082275" lon="11.201269626617432">
        <ele>152</ele>
        <time>2004-12-18T09:38:07Z</time>
      </trkpt>
      <trkpt lat="44.442529678344727" lon="11.201012134552002">
        <ele>148</ele>
        <time>2004-12-18T09:38:11Z</time>
      </trkpt>
      <trkpt lat="44.442315101623535" lon="11.200861930847168">
        <ele>144</ele>
        <time>2004-12-18T09:38:14Z</time>
      </trkpt>
      <trkpt lat="44.442229270935059" lon="11.200840473175049">
        <ele>143</ele>
        <time>2004-12-18T09:38:15Z</time>
      </trkpt>
      <trkpt lat="44.442186439409852" lon="11.200625896453857">
        <ele>140</ele>
        <time>2004-12-18T09:38:19Z</time>
      </trkpt>
      <trkpt lat="44.442336559295654" lon="11.200368404388428">
        <ele>138</ele>
        <time>2004-12-18T09:38:22Z</time>
      </trkpt>
      <trkpt lat="44.442508220672607" lon="11.20006799697876">
        <ele>138</ele>
        <time>2004-12-18T09:38:27Z</time>
      </trkpt>
      <trkpt lat="44.442529678344727" lon="11.199831962585449">
        <ele>138</ele>
        <time>2004-12-18T09:38:39Z</time>
      </trkpt>
      <trkpt lat="44.442529678344727" lon="11.199831962585449">
        <ele>138</ele>
        <time>2004-12-18T09:38:43Z</time>
      </trkpt>
      <trkpt lat="44.442529678344727" lon="11.19981050491333">
        <ele>138</ele>
        <time>2004-12-18T09:38:55Z</time>
      </trkpt>
      <trkpt lat="44.442551136016846" lon="11.199746131896973">
        <ele>135</ele>
        <time>2004-12-18T09:39:49Z</time>
      </trkpt>
      <trkpt lat="44.442551136016846" lon="11.199746131896973">
        <ele>134</ele>
        <time>2004-12-18T09:39:57Z</time>
      </trkpt>
      <trkpt lat="44.442551136016846" lon="11.199681758880615">
        <ele>133</ele>
        <time>2004-12-18T09:40:01Z</time>
      </trkpt>
      <trkpt lat="44.442400932312012" lon="11.199467182159424">
        <ele>137</ele>
        <time>2004-12-18T09:40:18Z</time>
      </trkpt>
      <trkpt lat="44.442400932312012" lon="11.199467182159424">
        <ele>137</ele>
        <time>2004-12-18T09:40:19Z</time>
      </trkpt>
      <trkpt lat="44.442207813262939" lon="11.199295520782471">
        <ele>140</ele>
        <time>2004-12-18T09:40:34Z</time>
      </trkpt>
      <trkpt lat="44.442036235705018" lon="11.199231063947082">
        <ele>139</ele>
        <time>2004-12-18T09:40:40Z</time>
      </trkpt>
      <trkpt lat="44.441843032836914" lon="11.199209690093994">
        <ele>141</ele>
        <time>2004-12-18T09:40:46Z</time>
      </trkpt>
      <trkpt lat="44.441714286804199" lon="11.199231063947082">
        <ele>142</ele>
        <time>2004-12-18T09:40:50Z</time>
      </trkpt>
      <trkpt lat="44.441628539934754" lon="11.199231063947082">
        <ele>145</ele>
        <time>2004-12-18T09:40:53Z</time>
      </trkpt>
      <trkpt lat="44.441564083099365" lon="11.199252605438232">
        <ele>141</ele>
        <time>2004-12-18T09:40:55Z</time>
      </trkpt>
      <trkpt lat="44.441521167755127" lon="11.199252605438232">
        <ele>141</ele>
        <time>2004-12-18T09:40:56Z</time>
      </trkpt>
      <trkpt lat="44.441327964887023" lon="11.19931697845459">
        <ele>140</ele>
        <time>2004-12-18T09:41:02Z</time>
      </trkpt>
      <trkpt lat="44.441156387329102" lon="11.199381435289979">
        <ele>140</ele>
        <time>2004-12-18T09:41:07Z</time>
      </trkpt>
      <trkpt lat="44.440619861707091" lon="11.199767589569092">
        <ele>142</ele>
        <time>2004-12-18T09:41:23Z</time>
      </trkpt>
      <trkpt lat="44.440126419067383" lon="11.200089538469911">
        <ele>142</ele>
        <time>2004-12-18T09:41:41Z</time>
      </trkpt>
      <trkpt lat="44.440019130706787" lon="11.200110912322998">
        <ele>143</ele>
        <time>2004-12-18T09:41:46Z</time>
      </trkpt>
      <trkpt lat="44.439568519592285" lon="11.200025081634521">
        <ele>143</ele>
        <time>2004-12-18T09:42:03Z</time>
      </trkpt>
      <trkpt lat="44.439525604248047" lon="11.199982166290283">
        <ele>145</ele>
        <time>2004-12-18T09:42:05Z</time>
      </trkpt>
      <trkpt lat="44.439096534624696" lon="11.199467182159424">
        <ele>146</ele>
        <time>2004-12-18T09:42:27Z</time>
      </trkpt>
      <trkpt lat="44.438624382019043" lon="11.199102401733398">
        <ele>147</ele>
        <time>2004-12-18T09:42:48Z</time>
      </trkpt>
      <trkpt lat="44.438066482543945" lon="11.198973739519715">
        <ele>148</ele>
        <time>2004-12-18T09:43:08Z</time>
      </trkpt>
      <trkpt lat="44.437401294708252" lon="11.198866367340088">
        <ele>149</ele>
        <time>2004-12-18T09:43:31Z</time>
      </trkpt>
      <trkpt lat="44.436929225921631" lon="11.198759078979492">
        <ele>150</ele>
        <time>2004-12-18T09:43:47Z</time>
      </trkpt>
      <trkpt lat="44.436478614807129" lon="11.198630332946777">
        <ele>152</ele>
        <time>2004-12-18T09:44:02Z</time>
      </trkpt>
      <trkpt lat="44.436135292053223" lon="11.198544502258301">
        <ele>153</ele>
        <time>2004-12-18T09:44:13Z</time>
      </trkpt>
      <trkpt lat="44.435491561889648" lon="11.198394298553467">
        <ele>153</ele>
        <time>2004-12-18T09:44:33Z</time>
      </trkpt>
      <trkpt lat="44.435062408447266" lon="11.19830846786499">
        <ele>156</ele>
        <time>2004-12-18T09:44:47Z</time>
      </trkpt>
      <trkpt lat="44.434525966644287" lon="11.198050975799561">
        <ele>157</ele>
        <time>2004-12-18T09:45:06Z</time>
      </trkpt>
      <trkpt lat="44.434332763776183" lon="11.197836399078369">
        <ele>160</ele>
        <time>2004-12-18T09:45:14Z</time>
      </trkpt>
      <trkpt lat="44.434010982513428" lon="11.197256958112121">
        <ele>159</ele>
        <time>2004-12-18T09:45:31Z</time>
      </trkpt>
      <trkpt lat="44.433474540710449" lon="11.196720600128174">
        <ele>162</ele>
        <time>2004-12-18T09:45:51Z</time>
      </trkpt>
      <trkpt lat="44.432852268218994" lon="11.196677684783936">
        <ele>162</ele>
        <time>2004-12-18T09:46:09Z</time>
      </trkpt>
      <trkpt lat="44.432229995727539" lon="11.196999466046691">
        <ele>163</ele>
        <time>2004-12-18T09:46:29Z</time>
      </trkpt>
      <trkpt lat="44.431693637743592" lon="11.196956634521484">
        <ele>165</ele>
        <time>2004-12-18T09:46:47Z</time>
      </trkpt>
      <trkpt lat="44.431242858991027" lon="11.196720600128174">
        <ele>167</ele>
        <time>2004-12-18T09:47:03Z</time>
      </trkpt>
      <trkpt lat="44.430642127990723" lon="11.196377277374268">
        <ele>167</ele>
        <time>2004-12-18T09:47:23Z</time>
      </trkpt>
      <trkpt lat="44.429891109466553" lon="11.196184158325195">
        <ele>170</ele>
        <time>2004-12-18T09:47:45Z</time>
      </trkpt>
      <trkpt lat="44.429397583007813" lon="11.196184158325195">
        <ele>171</ele>
        <time>2004-12-18T09:48:00Z</time>
      </trkpt>
      <trkpt lat="44.4287109375" lon="11.196248531341553">
        <ele>171</ele>
        <time>2004-12-18T09:48:20Z</time>
      </trkpt>
      <trkpt lat="44.428646564483643" lon="11.196248531341553">
        <ele>171</ele>
        <time>2004-12-18T09:48:24Z</time>
      </trkpt>
      <trkpt lat="44.428603565320373" lon="11.19631290435791">
        <ele>171</ele>
        <time>2004-12-18T09:48:28Z</time>
      </trkpt>
      <trkpt lat="44.428324699401855" lon="11.196377277374268">
        <ele>173</ele>
        <time>2004-12-18T09:48:36Z</time>
      </trkpt>
      <trkpt lat="44.427638137713075" lon="11.196506023406982">
        <ele>174</ele>
        <time>2004-12-18T09:48:55Z</time>
      </trkpt>
      <trkpt lat="44.427037239074707" lon="11.19657039642334">
        <ele>176</ele>
        <time>2004-12-18T09:49:13Z</time>
      </trkpt>
      <trkpt lat="44.426372135058045" lon="11.196677684783936">
        <ele>177</ele>
        <time>2004-12-18T09:49:31Z</time>
      </trkpt>
      <trkpt lat="44.425685405731201" lon="11.196634769439697">
        <ele>179</ele>
        <time>2004-12-18T09:49:50Z</time>
      </trkpt>
      <trkpt lat="44.424870014190674" lon="11.196742141619325">
        <ele>180</ele>
        <time>2004-12-18T09:50:13Z</time>
      </trkpt>
      <trkpt lat="44.424505233764648" lon="11.196720600128174">
        <ele>183</ele>
        <time>2004-12-18T09:50:23Z</time>
      </trkpt>
      <trkpt lat="44.42371129989624" lon="11.196699058637023">
        <ele>185</ele>
        <time>2004-12-18T09:50:45Z</time>
      </trkpt>
      <trkpt lat="44.423131858929992" lon="11.197300041094422">
        <ele>186</ele>
        <time>2004-12-18T09:51:04Z</time>
      </trkpt>
      <trkpt lat="44.422552585601807" lon="11.197943687438965">
        <ele>188</ele>
        <time>2004-12-18T09:51:24Z</time>
      </trkpt>
      <trkpt lat="44.422402381896973" lon="11.19807243347168">
        <ele>188</ele>
        <time>2004-12-18T09:51:29Z</time>
      </trkpt>
      <trkpt lat="44.421865940093994" lon="11.198093891143799">
        <ele>191</ele>
        <time>2004-12-18T09:51:45Z</time>
      </trkpt>
      <trkpt lat="44.421415328979492" lon="11.197600364685059">
        <ele>194</ele>
        <time>2004-12-18T09:52:05Z</time>
      </trkpt>
      <trkpt lat="44.421308040618896" lon="11.197085380554199">
        <ele>197</ele>
        <time>2004-12-18T09:52:18Z</time>
      </trkpt>
      <trkpt lat="44.421114921569824" lon="11.196677684783936">
        <ele>201</ele>
        <time>2004-12-18T09:52:30Z</time>
      </trkpt>
      <trkpt lat="44.421072006225586" lon="11.196613311767578">
        <ele>201</ele>
        <time>2004-12-18T09:52:32Z</time>
      </trkpt>
      <trkpt lat="44.420707225799561" lon="11.196291362866759">
        <ele>204</ele>
        <time>2004-12-18T09:52:48Z</time>
      </trkpt>
      <trkpt lat="44.420492565259337" lon="11.196269989013672">
        <ele>207</ele>
        <time>2004-12-18T09:52:57Z</time>
      </trkpt>
      <trkpt lat="44.41993466578424" lon="11.196248531341553">
        <ele>207</ele>
        <time>2004-12-18T09:53:17Z</time>
      </trkpt>
      <trkpt lat="44.419848918914795" lon="11.196334362030029">
        <ele>207</ele>
        <time>2004-12-18T09:53:21Z</time>
      </trkpt>
      <trkpt lat="44.419827461242676" lon="11.196849262341857">
        <ele>208</ele>
        <time>2004-12-18T09:53:32Z</time>
      </trkpt>
      <trkpt lat="44.419655799865723" lon="11.197021007537842">
        <ele>209</ele>
        <time>2004-12-18T09:53:39Z</time>
      </trkpt>
      <trkpt lat="44.419291019439697" lon="11.196956634521484">
        <ele>213</ele>
        <time>2004-12-18T09:53:53Z</time>
      </trkpt>
      <trkpt lat="44.419269561767578" lon="11.196935176849365">
        <ele>213</ele>
        <time>2004-12-18T09:53:54Z</time>
      </trkpt>
      <trkpt lat="44.418969238176942" lon="11.196613311767578">
        <ele>216</ele>
        <time>2004-12-18T09:54:10Z</time>
      </trkpt>
      <trkpt lat="44.418947696685791" lon="11.196591937914491">
        <ele>215</ele>
        <time>2004-12-18T09:54:11Z</time>
      </trkpt>
      <trkpt lat="44.418861865997314" lon="11.196548938751221">
        <ele>214</ele>
        <time>2004-12-18T09:54:13Z</time>
      </trkpt>
      <trkpt lat="44.41871166229248" lon="11.196548938751221">
        <ele>209</ele>
        <time>2004-12-18T09:54:16Z</time>
      </trkpt>
      <trkpt lat="44.418647289276123" lon="11.19657039642334">
        <ele>209</ele>
        <time>2004-12-18T09:54:17Z</time>
      </trkpt>
      <trkpt lat="44.418432712554932" lon="11.19682788848877">
        <ele>209</ele>
        <time>2004-12-18T09:54:22Z</time>
      </trkpt>
      <trkpt lat="44.418132305145264" lon="11.197493076324463">
        <ele>211</ele>
        <time>2004-12-18T09:54:37Z</time>
      </trkpt>
      <trkpt lat="44.418025016784668" lon="11.197578907012939">
        <ele>212</ele>
        <time>2004-12-18T09:54:41Z</time>
      </trkpt>
      <trkpt lat="44.417359828948975" lon="11.198179721832275">
        <ele>214</ele>
        <time>2004-12-18T09:55:07Z</time>
      </trkpt>
      <trkpt lat="44.416909217834473" lon="11.198630332946777">
        <ele>217</ele>
        <time>2004-12-18T09:55:27Z</time>
      </trkpt>
      <trkpt lat="44.416501522064209" lon="11.198866367340088">
        <ele>217</ele>
        <time>2004-12-18T09:55:43Z</time>
      </trkpt>
      <trkpt lat="44.415857791900635" lon="11.198716163635254">
        <ele>218</ele>
        <time>2004-12-18T09:56:04Z</time>
      </trkpt>
      <trkpt lat="44.415278434753418" lon="11.19856595993042">
        <ele>219</ele>
        <time>2004-12-18T09:56:25Z</time>
      </trkpt>
      <trkpt lat="44.414999485015869" lon="11.198952198028564">
        <ele>221</ele>
        <time>2004-12-18T09:56:41Z</time>
      </trkpt>
      <trkpt lat="44.41476353444159" lon="11.199531638994813">
        <ele>224</ele>
        <time>2004-12-18T09:56:58Z</time>
      </trkpt>
      <trkpt lat="44.414462959393859" lon="11.200046539306641">
        <ele>225</ele>
        <time>2004-12-18T09:57:16Z</time>
      </trkpt>
      <trkpt lat="44.413883686065674" lon="11.200025081634521">
        <ele>227</ele>
        <time>2004-12-18T09:57:34Z</time>
      </trkpt>
      <trkpt lat="44.413282871246338" lon="11.19981050491333">
        <ele>230</ele>
        <time>2004-12-18T09:57:51Z</time>
      </trkpt>
      <trkpt lat="44.412617683410645" lon="11.199660301208496">
        <ele>232</ele>
        <time>2004-12-18T09:58:12Z</time>
      </trkpt>
      <trkpt lat="44.411780834197998" lon="11.19981050491333">
        <ele>235</ele>
        <time>2004-12-18T09:58:39Z</time>
      </trkpt>
      <trkpt lat="44.411201477050781" lon="11.200153827667236">
        <ele>238</ele>
        <time>2004-12-18T09:58:59Z</time>
      </trkpt>
      <trkpt lat="44.410815238952637" lon="11.200046539306641">
        <ele>238</ele>
        <time>2004-12-18T09:59:12Z</time>
      </trkpt>
      <trkpt lat="44.410386085510254" lon="11.19931697845459">
        <ele>240</ele>
        <time>2004-12-18T09:59:34Z</time>
      </trkpt>
      <trkpt lat="44.409935474395752" lon="11.199338436126709">
        <ele>241</ele>
        <time>2004-12-18T09:59:53Z</time>
      </trkpt>
      <trkpt lat="44.409549236297607" lon="11.198995113372803">
        <ele>242</ele>
        <time>2004-12-18T10:00:10Z</time>
      </trkpt>
      <trkpt lat="44.409205913543701" lon="11.198480129241943">
        <ele>245</ele>
        <time>2004-12-18T10:00:27Z</time>
      </trkpt>
      <trkpt lat="44.409184539690614" lon="11.198458671569824">
        <ele>245</ele>
        <time>2004-12-18T10:00:28Z</time>
      </trkpt>
      <trkpt lat="44.408776760101318" lon="11.19830846786499">
        <ele>248</ele>
        <time>2004-12-18T10:00:47Z</time>
      </trkpt>
      <trkpt lat="44.408004283905029" lon="11.198329925537109">
        <ele>251</ele>
        <time>2004-12-18T10:01:18Z</time>
      </trkpt>
      <trkpt lat="44.40772533416748" lon="11.19781494140625">
        <ele>252</ele>
        <time>2004-12-18T10:01:37Z</time>
      </trkpt>
      <trkpt lat="44.407617961987853" lon="11.197235584259033">
        <ele>253</ele>
        <time>2004-12-18T10:01:53Z</time>
      </trkpt>
      <trkpt lat="44.407682418823242" lon="11.19706392288208">
        <ele>253</ele>
        <time>2004-12-18T10:01:59Z</time>
      </trkpt>
      <trkpt lat="44.4077467918396" lon="11.197042465209961">
        <ele>253</ele>
        <time>2004-12-18T10:02:02Z</time>
      </trkpt>
      <trkpt lat="44.407896995544434" lon="11.197085380554199">
        <ele>256</ele>
        <time>2004-12-18T10:02:12Z</time>
      </trkpt>
      <trkpt lat="44.408090114593506" lon="11.197149837389588">
        <ele>260</ele>
        <time>2004-12-18T10:02:27Z</time>
      </trkpt>
      <trkpt lat="44.408197402954102" lon="11.197171211242676">
        <ele>263</ele>
        <time>2004-12-18T10:02:35Z</time>
      </trkpt>
      <trkpt lat="44.408218860626221" lon="11.197192668914795">
        <ele>264</ele>
        <time>2004-12-18T10:02:37Z</time>
      </trkpt>
      <trkpt lat="44.40824031829834" lon="11.197214126586914">
        <ele>266</ele>
        <time>2004-12-18T10:02:39Z</time>
      </trkpt>
      <trkpt lat="44.408326065167785" lon="11.197278499603271">
        <ele>269</ele>
        <time>2004-12-18T10:02:47Z</time>
      </trkpt>
      <trkpt lat="44.408411979675293" lon="11.197364330291748">
        <ele>272</ele>
        <time>2004-12-18T10:02:56Z</time>
      </trkpt>
      <trkpt lat="44.408454895019531" lon="11.197407161816955">
        <ele>274</ele>
        <time>2004-12-18T10:03:01Z</time>
      </trkpt>
      <trkpt lat="44.408690929412842" lon="11.197471618652344">
        <ele>277</ele>
        <time>2004-12-18T10:03:19Z</time>
      </trkpt>
      <trkpt lat="44.408883964642882" lon="11.197407161816955">
        <ele>280</ele>
        <time>2004-12-18T10:03:36Z</time>
      </trkpt>
      <trkpt lat="44.408969879150391" lon="11.197428703308105">
        <ele>282</ele>
        <time>2004-12-18T10:03:41Z</time>
      </trkpt>
      <trkpt lat="44.409270286560059" lon="11.197535991668701">
        <ele>285</ele>
        <time>2004-12-18T10:04:02Z</time>
      </trkpt>
      <trkpt lat="44.409399032592773" lon="11.197557365521789">
        <ele>289</ele>
        <time>2004-12-18T10:04:10Z</time>
      </trkpt>
      <trkpt lat="44.409420490264893" lon="11.197557365521789">
        <ele>289</ele>
        <time>2004-12-18T10:04:12Z</time>
      </trkpt>
      <trkpt lat="44.40948486328125" lon="11.197578907012939">
        <ele>289</ele>
        <time>2004-12-18T10:04:18Z</time>
      </trkpt>
      <trkpt lat="44.409613609313965" lon="11.19732141494751">
        <ele>293</ele>
        <time>2004-12-18T10:04:36Z</time>
      </trkpt>
      <trkpt lat="44.409613609313965" lon="11.197106838226318">
        <ele>296</ele>
        <time>2004-12-18T10:04:51Z</time>
      </trkpt>
      <trkpt lat="44.409570693969727" lon="11.196956634521484">
        <ele>299</ele>
        <time>2004-12-18T10:05:02Z</time>
      </trkpt>
      <trkpt lat="44.409377574920654" lon="11.196935176849365">
        <ele>301</ele>
        <time>2004-12-18T10:05:20Z</time>
      </trkpt>
      <trkpt lat="44.40922737121582" lon="11.196935176849365">
        <ele>303</ele>
        <time>2004-12-18T10:05:34Z</time>
      </trkpt>
      <trkpt lat="44.409012794494629" lon="11.196849262341857">
        <ele>306</ele>
        <time>2004-12-18T10:05:55Z</time>
      </trkpt>
      <trkpt lat="44.408819675445557" lon="11.196613311767578">
        <ele>309</ele>
        <time>2004-12-18T10:06:16Z</time>
      </trkpt>
      <trkpt lat="44.408690929412842" lon="11.196355819702148">
        <ele>312</ele>
        <time>2004-12-18T10:06:36Z</time>
      </trkpt>
      <trkpt lat="44.408648014068604" lon="11.196184158325195">
        <ele>314</ele>
        <time>2004-12-18T10:06:49Z</time>
      </trkpt>
      <trkpt lat="44.408626640215516" lon="11.19605541229248">
        <ele>314</ele>
        <time>2004-12-18T10:06:57Z</time>
      </trkpt>
      <trkpt lat="44.408669471740723" lon="11.195733463391662">
        <ele>317</ele>
        <time>2004-12-18T10:07:19Z</time>
      </trkpt>
      <trkpt lat="44.408712387084961" lon="11.195454597473145">
        <ele>321</ele>
        <time>2004-12-18T10:07:36Z</time>
      </trkpt>
      <trkpt lat="44.408733760938048" lon="11.195218563079834">
        <ele>324</ele>
        <time>2004-12-18T10:07:47Z</time>
      </trkpt>
      <trkpt lat="44.408776760101318" lon="11.195089817047119">
        <ele>327</ele>
        <time>2004-12-18T10:07:53Z</time>
      </trkpt>
      <trkpt lat="44.408776760101318" lon="11.195068359375">
        <ele>327</ele>
        <time>2004-12-18T10:07:54Z</time>
      </trkpt>
      <trkpt lat="44.408819675445557" lon="11.194982528686523">
        <ele>330</ele>
        <time>2004-12-18T10:08:00Z</time>
      </trkpt>
      <trkpt lat="44.408926963806152" lon="11.194896697998047">
        <ele>333</ele>
        <time>2004-12-18T10:08:10Z</time>
      </trkpt>
      <trkpt lat="44.40903433598578" lon="11.19481086730957">
        <ele>336</ele>
        <time>2004-12-18T10:08:20Z</time>
      </trkpt>
      <trkpt lat="44.409055709838867" lon="11.194789409637451">
        <ele>338</ele>
        <time>2004-12-18T10:08:22Z</time>
      </trkpt>
      <trkpt lat="44.409098625183105" lon="11.194746494293213">
        <ele>339</ele>
        <time>2004-12-18T10:08:27Z</time>
      </trkpt>
      <trkpt lat="44.409248828887939" lon="11.19457483291626">
        <ele>341</ele>
        <time>2004-12-18T10:08:47Z</time>
      </trkpt>
      <trkpt lat="44.409420490264893" lon="11.194338798522949">
        <ele>342</ele>
        <time>2004-12-18T10:09:06Z</time>
      </trkpt>
      <trkpt lat="44.409635066986084" lon="11.194102764129639">
        <ele>343</ele>
        <time>2004-12-18T10:09:27Z</time>
      </trkpt>
      <trkpt lat="44.409849559888244" lon="11.193866729736328">
        <ele>346</ele>
        <time>2004-12-18T10:09:43Z</time>
      </trkpt>
      <trkpt lat="44.410214424133301" lon="11.193437576293945">
        <ele>348</ele>
        <time>2004-12-18T10:10:11Z</time>
      </trkpt>
      <trkpt lat="44.41049337387085" lon="11.193094337359071">
        <ele>351</ele>
        <time>2004-12-18T10:10:33Z</time>
      </trkpt>
      <trkpt lat="44.410643577575684" lon="11.192943966016173">
        <ele>353</ele>
        <time>2004-12-18T10:10:44Z</time>
      </trkpt>
      <trkpt lat="44.410793781280518" lon="11.192729473114014">
        <ele>356</ele>
        <time>2004-12-18T10:10:56Z</time>
      </trkpt>
      <trkpt lat="44.411029815673828" lon="11.19257926940918">
        <ele>360</ele>
        <time>2004-12-18T10:11:09Z</time>
      </trkpt>
      <trkpt lat="44.411115562543273" lon="11.192514896392822">
        <ele>363</ele>
        <time>2004-12-18T10:11:14Z</time>
      </trkpt>
      <trkpt lat="44.411137104034424" lon="11.192514896392822">
        <ele>363</ele>
        <time>2004-12-18T10:11:16Z</time>
      </trkpt>
      <trkpt lat="44.411115562543273" lon="11.192407608032227">
        <ele>363</ele>
        <time>2004-12-18T10:11:29Z</time>
      </trkpt>
      <trkpt lat="44.411094188690186" lon="11.192386234179139">
        <ele>364</ele>
        <time>2004-12-18T10:11:41Z</time>
      </trkpt>
      <trkpt lat="44.411072731018066" lon="11.192407608032227">
        <ele>364</ele>
        <time>2004-12-18T10:12:23Z</time>
      </trkpt>
      <trkpt lat="44.411029815673828" lon="11.192429065704346">
        <ele>363</ele>
        <time>2004-12-18T10:13:27Z</time>
      </trkpt>
      <trkpt lat="44.411029815673828" lon="11.192450523376465">
        <ele>363</ele>
        <time>2004-12-18T10:14:25Z</time>
      </trkpt>
      <trkpt lat="44.411072731018066" lon="11.192471981048584">
        <ele>363</ele>
        <time>2004-12-18T10:16:09Z</time>
      </trkpt>
      <trkpt lat="44.410901069641113" lon="11.192557811737061">
        <ele>363</ele>
        <time>2004-12-18T10:16:28Z</time>
      </trkpt>
      <trkpt lat="44.410622119903564" lon="11.192772388458252">
        <ele>365</ele>
        <time>2004-12-18T10:16:50Z</time>
      </trkpt>
      <trkpt lat="44.410429000854492" lon="11.192986965179443">
        <ele>365</ele>
        <time>2004-12-18T10:17:10Z</time>
      </trkpt>
      <trkpt lat="44.410064220428467" lon="11.193222999572754">
        <ele>367</ele>
        <time>2004-12-18T10:17:28Z</time>
      </trkpt>
      <trkpt lat="44.410021305084229" lon="11.193244541063905">
        <ele>369</ele>
        <time>2004-12-18T10:17:30Z</time>
      </trkpt>
      <trkpt lat="44.409828186035156" lon="11.193287372589111">
        <ele>372</ele>
        <time>2004-12-18T10:17:40Z</time>
      </trkpt>
      <trkpt lat="44.409570693969727" lon="11.193287372589111">
        <ele>375</ele>
        <time>2004-12-18T10:17:58Z</time>
      </trkpt>
      <trkpt lat="44.409356117248535" lon="11.193244541063905">
        <ele>376</ele>
        <time>2004-12-18T10:18:20Z</time>
      </trkpt>
      <trkpt lat="44.409141540527344" lon="11.193222999572754">
        <ele>377</ele>
        <time>2004-12-18T10:18:40Z</time>
      </trkpt>
      <trkpt lat="44.40899133682251" lon="11.193222999572754">
        <ele>381</ele>
        <time>2004-12-18T10:18:53Z</time>
      </trkpt>
      <trkpt lat="44.408969879150391" lon="11.193222999572754">
        <ele>381</ele>
        <time>2004-12-18T10:18:54Z</time>
      </trkpt>
      <trkpt lat="44.408798217773438" lon="11.193137168884277">
        <ele>383</ele>
        <time>2004-12-18T10:19:10Z</time>
      </trkpt>
      <trkpt lat="44.408798217773438" lon="11.193094337359071">
        <ele>383</ele>
        <time>2004-12-18T10:19:13Z</time>
      </trkpt>
      <trkpt lat="44.408819675445557" lon="11.193051338195801">
        <ele>383</ele>
        <time>2004-12-18T10:19:17Z</time>
      </trkpt>
      <trkpt lat="44.409012794494629" lon="11.192943966016173">
        <ele>386</ele>
        <time>2004-12-18T10:19:36Z</time>
      </trkpt>
      <trkpt lat="44.409120082855225" lon="11.192901134490967">
        <ele>389</ele>
        <time>2004-12-18T10:19:44Z</time>
      </trkpt>
      <trkpt lat="44.409270286560059" lon="11.192836761474609">
        <ele>394</ele>
        <time>2004-12-18T10:19:58Z</time>
      </trkpt>
      <trkpt lat="44.409420490264893" lon="11.192772388458252">
        <ele>395</ele>
        <time>2004-12-18T10:20:15Z</time>
      </trkpt>
      <trkpt lat="44.40944186411798" lon="11.192772388458252">
        <ele>397</ele>
        <time>2004-12-18T10:20:17Z</time>
      </trkpt>
      <trkpt lat="44.409463405609131" lon="11.192772388458252">
        <ele>400</ele>
        <time>2004-12-18T10:20:20Z</time>
      </trkpt>
      <trkpt lat="44.409677982330322" lon="11.192686641588807">
        <ele>402</ele>
        <time>2004-12-18T10:20:40Z</time>
      </trkpt>
      <trkpt lat="44.409785270690918" lon="11.192471981048584">
        <ele>405</ele>
        <time>2004-12-18T10:20:53Z</time>
      </trkpt>
      <trkpt lat="44.409806728363037" lon="11.192429065704346">
        <ele>407</ele>
        <time>2004-12-18T10:20:55Z</time>
      </trkpt>
      <trkpt lat="44.409935474395752" lon="11.192235862836242">
        <ele>408</ele>
        <time>2004-12-18T10:21:12Z</time>
      </trkpt>
      <trkpt lat="44.410064220428467" lon="11.192085659131408">
        <ele>411</ele>
        <time>2004-12-18T10:21:29Z</time>
      </trkpt>
      <trkpt lat="44.410171508789063" lon="11.191828334704041">
        <ele>411</ele>
        <time>2004-12-18T10:21:49Z</time>
      </trkpt>
      <trkpt lat="44.410214424133301" lon="11.19157075881958">
        <ele>411</ele>
        <time>2004-12-18T10:22:10Z</time>
      </trkpt>
      <trkpt lat="44.410171508789063" lon="11.191463470458984">
        <ele>411</ele>
        <time>2004-12-18T10:22:22Z</time>
      </trkpt>
      <trkpt lat="44.410107135772705" lon="11.191248893737793">
        <ele>406</ele>
        <time>2004-12-18T10:25:07Z</time>
      </trkpt>
      <trkpt lat="44.410085678100586" lon="11.191034317016602">
        <ele>404</ele>
        <time>2004-12-18T10:25:15Z</time>
      </trkpt>
      <trkpt lat="44.410064220428467" lon="11.190776824951172">
        <ele>401</ele>
        <time>2004-12-18T10:25:23Z</time>
      </trkpt>
      <trkpt lat="44.410064220428467" lon="11.190497875213623">
        <ele>401</ele>
        <time>2004-12-18T10:25:37Z</time>
      </trkpt>
      <trkpt lat="44.410064220428467" lon="11.190476417541504">
        <ele>401</ele>
        <time>2004-12-18T10:26:12Z</time>
      </trkpt>
      <trkpt lat="44.410064220428467" lon="11.190476417541504">
        <ele>397</ele>
        <time>2004-12-18T10:26:19Z</time>
      </trkpt>
      <trkpt lat="44.410064220428467" lon="11.190476417541504">
        <ele>398</ele>
        <time>2004-12-18T10:26:20Z</time>
      </trkpt>
      <trkpt lat="44.410064220428467" lon="11.190476417541504">
        <ele>402</ele>
        <time>2004-12-18T10:26:21Z</time>
      </trkpt>
      <trkpt lat="44.410064220428467" lon="11.190476417541504">
        <ele>401</ele>
        <time>2004-12-18T10:26:22Z</time>
      </trkpt>
      <trkpt lat="44.410021305084229" lon="11.190433502197266">
        <ele>399</ele>
        <time>2004-12-18T10:26:52Z</time>
      </trkpt>
      <trkpt lat="44.410021305084229" lon="11.190176010131836">
        <ele>401</ele>
        <time>2004-12-18T10:27:04Z</time>
      </trkpt>
      <trkpt lat="44.410042762756348" lon="11.18983268737793">
        <ele>402</ele>
        <time>2004-12-18T10:27:20Z</time>
      </trkpt>
      <trkpt lat="44.410085678100586" lon="11.189682483673096">
        <ele>403</ele>
        <time>2004-12-18T10:27:26Z</time>
      </trkpt>
      <trkpt lat="44.410192966461182" lon="11.189060211181641">
        <ele>401</ele>
        <time>2004-12-18T10:27:42Z</time>
      </trkpt>
      <trkpt lat="44.410321712493896" lon="11.1885666847229">
        <ele>400</ele>
        <time>2004-12-18T10:27:49Z</time>
      </trkpt>
      <trkpt lat="44.410300338640809" lon="11.188395023345947">
        <ele>398</ele>
        <time>2004-12-18T10:27:53Z</time>
      </trkpt>
      <trkpt lat="44.410150134935975" lon="11.188094615936279">
        <ele>400</ele>
        <time>2004-12-18T10:28:06Z</time>
      </trkpt>
      <trkpt lat="44.409999763593078" lon="11.187923038378358">
        <ele>402</ele>
        <time>2004-12-18T10:28:17Z</time>
      </trkpt>
      <trkpt lat="44.409828186035156" lon="11.187708377838135">
        <ele>405</ele>
        <time>2004-12-18T10:28:30Z</time>
      </trkpt>
      <trkpt lat="44.409656524658203" lon="11.18757963180542">
        <ele>407</ele>
        <time>2004-12-18T10:28:45Z</time>
      </trkpt>
      <trkpt lat="44.409549236297607" lon="11.187429428100586">
        <ele>410</ele>
        <time>2004-12-18T10:28:54Z</time>
      </trkpt>
      <trkpt lat="44.409356117248535" lon="11.187236309051514">
        <ele>410</ele>
        <time>2004-12-18T10:29:09Z</time>
      </trkpt>
      <trkpt lat="44.409334659576416" lon="11.187214935198426">
        <ele>409</ele>
        <time>2004-12-18T10:29:11Z</time>
      </trkpt>
      <trkpt lat="44.409162998199463" lon="11.187064563855529">
        <ele>405</ele>
        <time>2004-12-18T10:29:22Z</time>
      </trkpt>
      <trkpt lat="44.408862590789795" lon="11.186871528625488">
        <ele>405</ele>
        <time>2004-12-18T10:29:33Z</time>
      </trkpt>
      <trkpt lat="44.408755302429199" lon="11.186742782592773">
        <ele>406</ele>
        <time>2004-12-18T10:29:43Z</time>
      </trkpt>
      <trkpt lat="44.408519268035889" lon="11.186506664380431">
        <ele>409</ele>
        <time>2004-12-18T10:29:58Z</time>
      </trkpt>
      <trkpt lat="44.408433437347412" lon="11.186206340789795">
        <ele>407</ele>
        <time>2004-12-18T10:30:11Z</time>
      </trkpt>
      <trkpt lat="44.408411979675293" lon="11.186056137084961">
        <ele>405</ele>
        <time>2004-12-18T10:30:14Z</time>
      </trkpt>
      <trkpt lat="44.408283233642578" lon="11.185669898986816">
        <ele>404</ele>
        <time>2004-12-18T10:30:24Z</time>
      </trkpt>
      <trkpt lat="44.408261775970459" lon="11.185562610626221">
        <ele>404</ele>
        <time>2004-12-18T10:30:28Z</time>
      </trkpt>
      <trkpt lat="44.408304691314697" lon="11.18532657623291">
        <ele>402</ele>
        <time>2004-12-18T10:30:36Z</time>
      </trkpt>
      <trkpt lat="44.408261775970459" lon="11.185176372528076">
        <ele>402</ele>
        <time>2004-12-18T10:30:40Z</time>
      </trkpt>
      <trkpt lat="44.408154487609863" lon="11.184618473052979">
        <ele>402</ele>
        <time>2004-12-18T10:30:55Z</time>
      </trkpt>
      <trkpt lat="44.408111572265625" lon="11.184124862775207">
        <ele>400</ele>
        <time>2004-12-18T10:31:15Z</time>
      </trkpt>
      <trkpt lat="44.408111572265625" lon="11.184017658233643">
        <ele>398</ele>
        <time>2004-12-18T10:31:19Z</time>
      </trkpt>
      <trkpt lat="44.408111572265625" lon="11.183953285217285">
        <ele>397</ele>
        <time>2004-12-18T10:31:22Z</time>
      </trkpt>
      <trkpt lat="44.408390522003174" lon="11.183760166168213">
        <ele>395</ele>
        <time>2004-12-18T10:31:39Z</time>
      </trkpt>
      <trkpt lat="44.408562183380127" lon="11.183695793151855">
        <ele>396</ele>
        <time>2004-12-18T10:31:55Z</time>
      </trkpt>
      <trkpt lat="44.408605098724365" lon="11.183652877807617">
        <ele>396</ele>
        <time>2004-12-18T10:32:06Z</time>
      </trkpt>
      <trkpt lat="44.408669471740723" lon="11.183652877807617">
        <ele>395</ele>
        <time>2004-12-18T10:32:15Z</time>
      </trkpt>
      <trkpt lat="44.40899133682251" lon="11.183566963300109">
        <ele>396</ele>
        <time>2004-12-18T10:32:31Z</time>
      </trkpt>
      <trkpt lat="44.409077167510986" lon="11.183545589447021">
        <ele>398</ele>
        <time>2004-12-18T10:32:36Z</time>
      </trkpt>
      <trkpt lat="44.409141540527344" lon="11.183416759595275">
        <ele>396</ele>
        <time>2004-12-18T10:32:44Z</time>
      </trkpt>
      <trkpt lat="44.409162998199463" lon="11.183352470397949">
        <ele>394</ele>
        <time>2004-12-18T10:32:52Z</time>
      </trkpt>
      <trkpt lat="44.409162998199463" lon="11.183288097381592">
        <ele>391</ele>
        <time>2004-12-18T10:32:57Z</time>
      </trkpt>
      <trkpt lat="44.409098625183105" lon="11.183288097381592">
        <ele>388</ele>
        <time>2004-12-18T10:36:00Z</time>
      </trkpt>
      <trkpt lat="44.40903433598578" lon="11.18333101272583">
        <ele>388</ele>
        <time>2004-12-18T10:36:06Z</time>
      </trkpt>
      <trkpt lat="44.408776760101318" lon="11.183416759595275">
        <ele>389</ele>
        <time>2004-12-18T10:36:26Z</time>
      </trkpt>
      <trkpt lat="44.408583641052246" lon="11.183459758758545">
        <ele>390</ele>
        <time>2004-12-18T10:36:44Z</time>
      </trkpt>
      <trkpt lat="44.40824031829834" lon="11.183545589447021">
        <ele>392</ele>
        <time>2004-12-18T10:37:04Z</time>
      </trkpt>
      <trkpt lat="44.407854080200195" lon="11.183781623840332">
        <ele>390</ele>
        <time>2004-12-18T10:37:21Z</time>
      </trkpt>
      <trkpt lat="44.407467758283019" lon="11.183931827545166">
        <ele>390</ele>
        <time>2004-12-18T10:37:31Z</time>
      </trkpt>
      <trkpt lat="44.406802738085389" lon="11.183931827545166">
        <ele>392</ele>
        <time>2004-12-18T10:37:51Z</time>
      </trkpt>
      <trkpt lat="44.406673908233643" lon="11.18386753834784">
        <ele>393</ele>
        <time>2004-12-18T10:37:56Z</time>
      </trkpt>
      <trkpt lat="44.406588077545166" lon="11.183845996856689">
        <ele>394</ele>
        <time>2004-12-18T10:38:11Z</time>
      </trkpt>
      <trkpt lat="44.406266212463379" lon="11.183738708496094">
        <ele>394</ele>
        <time>2004-12-18T10:38:25Z</time>
      </trkpt>
      <trkpt lat="44.406180381774902" lon="11.183695793151855">
        <ele>392</ele>
        <time>2004-12-18T10:38:28Z</time>
      </trkpt>
      <trkpt lat="44.405837059020996" lon="11.183266639709473">
        <ele>395</ele>
        <time>2004-12-18T10:38:44Z</time>
      </trkpt>
      <trkpt lat="44.405794059857726" lon="11.183202266693115">
        <ele>396</ele>
        <time>2004-12-18T10:38:47Z</time>
      </trkpt>
      <trkpt lat="44.405622482299805" lon="11.183009063825011">
        <ele>400</ele>
        <time>2004-12-18T10:38:56Z</time>
      </trkpt>
      <trkpt lat="44.405579566955566" lon="11.182966232299805">
        <ele>401</ele>
        <time>2004-12-18T10:38:58Z</time>
      </trkpt>
      <trkpt lat="44.405450820922852" lon="11.18283748626709">
        <ele>404</ele>
        <time>2004-12-18T10:39:04Z</time>
      </trkpt>
      <trkpt lat="44.405450820922852" lon="11.182816028594971">
        <ele>404</ele>
        <time>2004-12-18T10:39:05Z</time>
      </trkpt>
      <trkpt lat="44.405129039660096" lon="11.182494163513184">
        <ele>404</ele>
        <time>2004-12-18T10:39:21Z</time>
      </trkpt>
      <trkpt lat="44.404721260070801" lon="11.18232250213623">
        <ele>404</ele>
        <time>2004-12-18T10:39:39Z</time>
      </trkpt>
      <trkpt lat="44.404356479644775" lon="11.18234395980835">
        <ele>403</ele>
        <time>2004-12-18T10:39:52Z</time>
      </trkpt>
      <trkpt lat="44.404163360595703" lon="11.182386875152588">
        <ele>405</ele>
        <time>2004-12-18T10:40:00Z</time>
      </trkpt>
      <trkpt lat="44.403605461120605" lon="11.182515621185303">
        <ele>404</ele>
        <time>2004-12-18T10:40:17Z</time>
      </trkpt>
      <trkpt lat="44.403347969055176" lon="11.18257999420166">
        <ele>402</ele>
        <time>2004-12-18T10:40:24Z</time>
      </trkpt>
      <trkpt lat="44.402918815612793" lon="11.182687282562256">
        <ele>402</ele>
        <time>2004-12-18T10:40:36Z</time>
      </trkpt>
      <trkpt lat="44.402811527252197" lon="11.182751739397645">
        <ele>406</ele>
        <time>2004-12-18T10:40:40Z</time>
      </trkpt>
      <trkpt lat="44.402747238054872" lon="11.182773113250732">
        <ele>407</ele>
        <time>2004-12-18T10:40:42Z</time>
      </trkpt>
      <trkpt lat="44.4022536277771" lon="11.182923316955566">
        <ele>406</ele>
        <time>2004-12-18T10:41:00Z</time>
      </trkpt>
      <trkpt lat="44.40203913487494" lon="11.182966232299805">
        <ele>405</ele>
        <time>2004-12-18T10:41:10Z</time>
      </trkpt>
      <trkpt lat="44.401845932006836" lon="11.182987689971924">
        <ele>402</ele>
        <time>2004-12-18T10:41:16Z</time>
      </trkpt>
      <trkpt lat="44.401609897613525" lon="11.182987689971924">
        <ele>400</ele>
        <time>2004-12-18T10:41:22Z</time>
      </trkpt>
      <trkpt lat="44.401223659515381" lon="11.182408332824707">
        <ele>401</ele>
        <time>2004-12-18T10:41:35Z</time>
      </trkpt>
      <trkpt lat="44.401159286499023" lon="11.182279586791992">
        <ele>402</ele>
        <time>2004-12-18T10:41:38Z</time>
      </trkpt>
      <trkpt lat="44.401094913482666" lon="11.182172298431396">
        <ele>404</ele>
        <time>2004-12-18T10:41:42Z</time>
      </trkpt>
      <trkpt lat="44.400837421417236" lon="11.181979179382324">
        <ele>408</ele>
        <time>2004-12-18T10:41:57Z</time>
      </trkpt>
      <trkpt lat="44.400815963745117" lon="11.181957721710205">
        <ele>408</ele>
        <time>2004-12-18T10:41:58Z</time>
      </trkpt>
      <trkpt lat="44.400579929351807" lon="11.181807518005371">
        <ele>411</ele>
        <time>2004-12-18T10:42:10Z</time>
      </trkpt>
      <trkpt lat="44.400472640991211" lon="11.181700229644775">
        <ele>413</ele>
        <time>2004-12-18T10:42:17Z</time>
      </trkpt>
      <trkpt lat="44.400300979614258" lon="11.181550025939941">
        <ele>415</ele>
        <time>2004-12-18T10:42:28Z</time>
      </trkpt>
      <trkpt lat="44.400172233581543" lon="11.181464195251465">
        <ele>418</ele>
        <time>2004-12-18T10:42:38Z</time>
      </trkpt>
      <trkpt lat="44.40000057220459" lon="11.181442737579346">
        <ele>422</ele>
        <time>2004-12-18T10:42:48Z</time>
      </trkpt>
      <trkpt lat="44.399979114532471" lon="11.181442737579346">
        <ele>422</ele>
        <time>2004-12-18T10:42:49Z</time>
      </trkpt>
      <trkpt lat="44.399914741516113" lon="11.181442737579346">
        <ele>423</ele>
        <time>2004-12-18T10:42:53Z</time>
      </trkpt>
      <trkpt lat="44.399914741516113" lon="11.181442737579346">
        <ele>424</ele>
        <time>2004-12-18T10:42:55Z</time>
      </trkpt>
      <trkpt lat="44.399785995483398" lon="11.181485736742616">
        <ele>426</ele>
        <time>2004-12-18T10:43:08Z</time>
      </trkpt>
      <trkpt lat="44.399635791778564" lon="11.181442737579346">
        <ele>429</ele>
        <time>2004-12-18T10:43:23Z</time>
      </trkpt>
      <trkpt lat="44.399464130401611" lon="11.181271076202393">
        <ele>425</ele>
        <time>2004-12-18T10:43:30Z</time>
      </trkpt>
      <trkpt lat="44.399399841204286" lon="11.181185161694884">
        <ele>424</ele>
        <time>2004-12-18T10:43:32Z</time>
      </trkpt>
      <trkpt lat="44.399356758221984" lon="11.181099414825439">
        <ele>423</ele>
        <time>2004-12-18T10:43:34Z</time>
      </trkpt>
      <trkpt lat="44.399271011352539" lon="11.180992126464844">
        <ele>421</ele>
        <time>2004-12-18T10:43:39Z</time>
      </trkpt>
      <trkpt lat="44.399206638336182" lon="11.180992126464844">
        <ele>422</ele>
        <time>2004-12-18T10:43:53Z</time>
      </trkpt>
      <trkpt lat="44.399335384368896" lon="11.181313991546631">
        <ele>418</ele>
        <time>2004-12-18T10:43:59Z</time>
      </trkpt>
      <trkpt lat="44.399635791778564" lon="11.182644367218018">
        <ele>413</ele>
        <time>2004-12-18T10:44:17Z</time>
      </trkpt>
      <trkpt lat="44.399678707122803" lon="11.182794570922852">
        <ele>410</ele>
        <time>2004-12-18T10:44:19Z</time>
      </trkpt>
      <trkpt lat="44.399700164794922" lon="11.182944774627686">
        <ele>407</ele>
        <time>2004-12-18T10:44:21Z</time>
      </trkpt>
      <trkpt lat="44.399807536974549" lon="11.183309638872743">
        <ele>405</ele>
        <time>2004-12-18T10:44:26Z</time>
      </trkpt>
      <trkpt lat="44.399850368499756" lon="11.18358850479126">
        <ele>402</ele>
        <time>2004-12-18T10:44:30Z</time>
      </trkpt>
      <trkpt lat="44.400064861401916" lon="11.184468269348145">
        <ele>402</ele>
        <time>2004-12-18T10:44:43Z</time>
      </trkpt>
      <trkpt lat="44.400193691253662" lon="11.184554100036621">
        <ele>403</ele>
        <time>2004-12-18T10:44:46Z</time>
      </trkpt>
      <trkpt lat="44.400408267974854" lon="11.184918880462646">
        <ele>401</ele>
        <time>2004-12-18T10:44:55Z</time>
      </trkpt>
      <trkpt lat="44.400429725646973" lon="11.185026168823242">
        <ele>399</ele>
        <time>2004-12-18T10:44:57Z</time>
      </trkpt>
      <trkpt lat="44.400408267974854" lon="11.185348033905029">
        <ele>396</ele>
        <time>2004-12-18T10:45:03Z</time>
      </trkpt>
      <trkpt lat="44.400408267974854" lon="11.185412406921387">
        <ele>396</ele>
        <time>2004-12-18T10:45:04Z</time>
      </trkpt>
      <trkpt lat="44.400322437286377" lon="11.185562610626221">
        <ele>391</ele>
        <time>2004-12-18T10:45:07Z</time>
      </trkpt>
      <trkpt lat="44.400300979614258" lon="11.185605525970459">
        <ele>390</ele>
        <time>2004-12-18T10:45:08Z</time>
      </trkpt>
      <trkpt lat="44.400322437286377" lon="11.185927391052246">
        <ele>385</ele>
        <time>2004-12-18T10:45:15Z</time>
      </trkpt>
      <trkpt lat="44.400300979614258" lon="11.185991764068604">
        <ele>383</ele>
        <time>2004-12-18T10:45:18Z</time>
      </trkpt>
      <trkpt lat="44.400300979614258" lon="11.186013221740723">
        <ele>383</ele>
        <time>2004-12-18T10:45:19Z</time>
      </trkpt>
      <trkpt lat="44.400322437286377" lon="11.18607759475708">
        <ele>381</ele>
        <time>2004-12-18T10:45:22Z</time>
      </trkpt>
      <trkpt lat="44.400322437286377" lon="11.186120510101318">
        <ele>379</ele>
        <time>2004-12-18T10:45:24Z</time>
      </trkpt>
      <trkpt lat="44.400279521942139" lon="11.186270713806152">
        <ele>374</ele>
        <time>2004-12-18T10:45:28Z</time>
      </trkpt>
      <trkpt lat="44.40021506510675" lon="11.18633508682251">
        <ele>370</ele>
        <time>2004-12-18T10:45:31Z</time>
      </trkpt>
      <trkpt lat="44.40021506510675" lon="11.186399459838867">
        <ele>369</ele>
        <time>2004-12-18T10:45:33Z</time>
      </trkpt>
      <trkpt lat="44.400279521942139" lon="11.186463832855225">
        <ele>367</ele>
        <time>2004-12-18T10:45:35Z</time>
      </trkpt>
      <trkpt lat="44.400386810302734" lon="11.186678409576416">
        <ele>363</ele>
        <time>2004-12-18T10:45:39Z</time>
      </trkpt>
      <trkpt lat="44.400365436449647" lon="11.186657035723329">
        <ele>361</ele>
        <time>2004-12-18T10:45:42Z</time>
      </trkpt>
      <trkpt lat="44.400086402893066" lon="11.186549663543701">
        <ele>358</ele>
        <time>2004-12-18T10:45:46Z</time>
      </trkpt>
      <trkpt lat="44.399957740679383" lon="11.186463832855225">
        <ele>356</ele>
        <time>2004-12-18T10:45:48Z</time>
      </trkpt>
      <trkpt lat="44.399764537811279" lon="11.186184883117676">
        <ele>350</ele>
        <time>2004-12-18T10:45:52Z</time>
      </trkpt>
      <trkpt lat="44.399785995483398" lon="11.186313629150391">
        <ele>348</ele>
        <time>2004-12-18T10:45:54Z</time>
      </trkpt>
      <trkpt lat="44.399850368499756" lon="11.186592578887939">
        <ele>346</ele>
        <time>2004-12-18T10:45:57Z</time>
      </trkpt>
      <trkpt lat="44.399914741516113" lon="11.186657035723329">
        <ele>345</ele>
        <time>2004-12-18T10:45:58Z</time>
      </trkpt>
      <trkpt lat="44.400022029876709" lon="11.187000274658203">
        <ele>345</ele>
        <time>2004-12-18T10:46:03Z</time>
      </trkpt>
      <trkpt lat="44.399764537811279" lon="11.187150478363037">
        <ele>342</ele>
        <time>2004-12-18T10:46:08Z</time>
      </trkpt>
      <trkpt lat="44.399571418762207" lon="11.187450885772705">
        <ele>337</ele>
        <time>2004-12-18T10:46:11Z</time>
      </trkpt>
      <trkpt lat="44.399442672729492" lon="11.187729835510254">
        <ele>334</ele>
        <time>2004-12-18T10:46:13Z</time>
      </trkpt>
      <trkpt lat="44.399292469024658" lon="11.188330734148622">
        <ele>325</ele>
        <time>2004-12-18T10:46:17Z</time>
      </trkpt>
      <trkpt lat="44.399206638336182" lon="11.1885666847229">
        <ele>321</ele>
        <time>2004-12-18T10:46:19Z</time>
      </trkpt>
      <trkpt lat="44.399142265319824" lon="11.188802719116211">
        <ele>318</ele>
        <time>2004-12-18T10:46:21Z</time>
      </trkpt>
      <trkpt lat="44.399120807647705" lon="11.189060211181641">
        <ele>314</ele>
        <time>2004-12-18T10:46:23Z</time>
      </trkpt>
      <trkpt lat="44.399099266156554" lon="11.189189041033387">
        <ele>310</ele>
        <time>2004-12-18T10:46:24Z</time>
      </trkpt>
      <trkpt lat="44.399099266156554" lon="11.189446365460753">
        <ele>307</ele>
        <time>2004-12-18T10:46:26Z</time>
      </trkpt>
      <trkpt lat="44.399335384368896" lon="11.190004264935851">
        <ele>302</ele>
        <time>2004-12-18T10:46:31Z</time>
      </trkpt>
      <trkpt lat="44.399678707122803" lon="11.190411960706115">
        <ele>298</ele>
        <time>2004-12-18T10:46:36Z</time>
      </trkpt>
      <trkpt lat="44.399850368499756" lon="11.190648078918457">
        <ele>294</ele>
        <time>2004-12-18T10:46:39Z</time>
      </trkpt>
      <trkpt lat="44.399957740679383" lon="11.190776824951172">
        <ele>291</ele>
        <time>2004-12-18T10:46:41Z</time>
      </trkpt>
      <trkpt lat="44.400064861401916" lon="11.19086273945868">
        <ele>290</ele>
        <time>2004-12-18T10:46:43Z</time>
      </trkpt>
      <trkpt lat="44.4002366065979" lon="11.19081974029541">
        <ele>289</ele>
        <time>2004-12-18T10:46:51Z</time>
      </trkpt>
      <trkpt lat="44.400408267974854" lon="11.190798282623291">
        <ele>290</ele>
        <time>2004-12-18T10:48:18Z</time>
      </trkpt>
      <trkpt lat="44.400558471679688" lon="11.190733909606934">
        <ele>287</ele>
        <time>2004-12-18T10:48:30Z</time>
      </trkpt>
      <trkpt lat="44.400665760040283" lon="11.190733909606934">
        <ele>286</ele>
        <time>2004-12-18T10:48:48Z</time>
      </trkpt>
      <trkpt lat="44.400858879089355" lon="11.190755367279053">
        <ele>285</ele>
        <time>2004-12-18T10:49:12Z</time>
      </trkpt>
      <trkpt lat="44.400923335924745" lon="11.190905570983887">
        <ele>288</ele>
        <time>2004-12-18T10:49:34Z</time>
      </trkpt>
      <trkpt lat="44.401094913482666" lon="11.190991401672363">
        <ele>288</ele>
        <time>2004-12-18T10:49:51Z</time>
      </trkpt>
      <trkpt lat="44.401631439104676" lon="11.191163063049316">
        <ele>285</ele>
        <time>2004-12-18T10:50:06Z</time>
      </trkpt>
      <trkpt lat="44.40203913487494" lon="11.191420638933778">
        <ele>282</ele>
        <time>2004-12-18T10:50:23Z</time>
      </trkpt>
      <trkpt lat="44.402597034350038" lon="11.191871166229248">
        <ele>278</ele>
        <time>2004-12-18T10:50:49Z</time>
      </trkpt>
      <trkpt lat="44.40298318862915" lon="11.192171573638916">
        <ele>276</ele>
        <time>2004-12-18T10:51:06Z</time>
      </trkpt>
      <trkpt lat="44.404335021972656" lon="11.192193031311035">
        <ele>275</ele>
        <time>2004-12-18T10:51:17Z</time>
      </trkpt>
      <trkpt lat="44.404592514038086" lon="11.192407608032227">
        <ele>273</ele>
        <time>2004-12-18T10:51:22Z</time>
      </trkpt>
      <trkpt lat="44.405214786529541" lon="11.192879676818848">
        <ele>270</ele>
        <time>2004-12-18T10:51:32Z</time>
      </trkpt>
      <trkpt lat="44.405257701873779" lon="11.192943966016173">
        <ele>270</ele>
        <time>2004-12-18T10:51:33Z</time>
      </trkpt>
      <trkpt lat="44.405386364087462" lon="11.193029880523682">
        <ele>269</ele>
        <time>2004-12-18T10:51:35Z</time>
      </trkpt>
      <trkpt lat="44.406266212463379" lon="11.193866729736328">
        <ele>265</ele>
        <time>2004-12-18T10:51:53Z</time>
      </trkpt>
      <trkpt lat="44.406652534380555" lon="11.194295883178711">
        <ele>262</ele>
        <time>2004-12-18T10:52:01Z</time>
      </trkpt>
      <trkpt lat="44.40699577331543" lon="11.194617664441466">
        <ele>259</ele>
        <time>2004-12-18T10:52:07Z</time>
      </trkpt>
      <trkpt lat="44.40699577331543" lon="11.195175563916564">
        <ele>259</ele>
        <time>2004-12-18T10:52:13Z</time>
      </trkpt>
      <trkpt lat="44.40699577331543" lon="11.195497512817383">
        <ele>257</ele>
        <time>2004-12-18T10:52:16Z</time>
      </trkpt>
      <trkpt lat="44.407081604003906" lon="11.195883834734559">
        <ele>254</ele>
        <time>2004-12-18T10:52:20Z</time>
      </trkpt>
      <trkpt lat="44.4077467918396" lon="11.19732141494751">
        <ele>251</ele>
        <time>2004-12-18T10:52:37Z</time>
      </trkpt>
      <trkpt lat="44.407832622528076" lon="11.197493076324463">
        <ele>250</ele>
        <time>2004-12-18T10:52:39Z</time>
      </trkpt>
      <trkpt lat="44.408154487609863" lon="11.198287010192871">
        <ele>248</ele>
        <time>2004-12-18T10:52:48Z</time>
      </trkpt>
      <trkpt lat="44.408347606658936" lon="11.19852296076715">
        <ele>245</ele>
        <time>2004-12-18T10:52:52Z</time>
      </trkpt>
      <trkpt lat="44.408669471740723" lon="11.19856595993042">
        <ele>243</ele>
        <time>2004-12-18T10:52:57Z</time>
      </trkpt>
      <trkpt lat="44.409248828887939" lon="11.198351383209229">
        <ele>243</ele>
        <time>2004-12-18T10:53:05Z</time>
      </trkpt>
      <trkpt lat="44.409570693969727" lon="11.198737621307373">
        <ele>242</ele>
        <time>2004-12-18T10:53:11Z</time>
      </trkpt>
      <trkpt lat="44.409677982330322" lon="11.198887825012207">
        <ele>240</ele>
        <time>2004-12-18T10:53:13Z</time>
      </trkpt>
      <trkpt lat="44.409849559888244" lon="11.199123859405518">
        <ele>239</ele>
        <time>2004-12-18T10:53:16Z</time>
      </trkpt>
      <trkpt lat="44.40997838973999" lon="11.199274063110352">
        <ele>238</ele>
        <time>2004-12-18T10:53:18Z</time>
      </trkpt>
      <trkpt lat="44.410128593444824" lon="11.199381435289979">
        <ele>237</ele>
        <time>2004-12-18T10:53:20Z</time>
      </trkpt>
      <trkpt lat="44.410407459363341" lon="11.199295520782471">
        <ele>237</ele>
        <time>2004-12-18T10:53:24Z</time>
      </trkpt>
      <trkpt lat="44.410643577575684" lon="11.199359893798828">
        <ele>236</ele>
        <time>2004-12-18T10:53:27Z</time>
      </trkpt>
      <trkpt lat="44.411072731018066" lon="11.200025081634521">
        <ele>233</ele>
        <time>2004-12-18T10:53:34Z</time>
      </trkpt>
      <trkpt lat="44.411437511444092" lon="11.200153827667236">
        <ele>232</ele>
        <time>2004-12-18T10:53:39Z</time>
      </trkpt>
      <trkpt lat="44.411587715148926" lon="11.20006799697876">
        <ele>231</ele>
        <time>2004-12-18T10:53:41Z</time>
      </trkpt>
      <trkpt lat="44.411802291870117" lon="11.199917793273926">
        <ele>230</ele>
        <time>2004-12-18T10:53:44Z</time>
      </trkpt>
      <trkpt lat="44.412338733673096" lon="11.199681758880615">
        <ele>229</ele>
        <time>2004-12-18T10:53:51Z</time>
      </trkpt>
      <trkpt lat="44.413325786590576" lon="11.199746131896973">
        <ele>226</ele>
        <time>2004-12-18T10:54:04Z</time>
      </trkpt>
      <trkpt lat="44.413604736328125" lon="11.199831962585449">
        <ele>224</ele>
        <time>2004-12-18T10:54:08Z</time>
      </trkpt>
      <trkpt lat="44.414548873901367" lon="11.200046539306641">
        <ele>223</ele>
        <time>2004-12-18T10:54:22Z</time>
      </trkpt>
      <trkpt lat="44.414784908294678" lon="11.199746131896973">
        <ele>222</ele>
        <time>2004-12-18T10:54:27Z</time>
      </trkpt>
      <trkpt lat="44.415171062573791" lon="11.198780536651611">
        <ele>219</ele>
        <time>2004-12-18T10:54:38Z</time>
      </trkpt>
      <trkpt lat="44.415771961212158" lon="11.198480129241943">
        <ele>217</ele>
        <time>2004-12-18T10:54:47Z</time>
      </trkpt>
      <trkpt lat="44.415836334228516" lon="11.198501586914063">
        <ele>217</ele>
        <time>2004-12-18T10:54:48Z</time>
      </trkpt>
      <trkpt lat="44.416093826293945" lon="11.198694705963135">
        <ele>216</ele>
        <time>2004-12-18T10:54:52Z</time>
      </trkpt>
      <trkpt lat="44.416887760162354" lon="11.198952198028564">
        <ele>214</ele>
        <time>2004-12-18T10:55:04Z</time>
      </trkpt>
      <trkpt lat="44.417080879211426" lon="11.198759078979492">
        <ele>214</ele>
        <time>2004-12-18T10:55:08Z</time>
      </trkpt>
      <trkpt lat="44.417145336046815" lon="11.198608875274658">
        <ele>216</ele>
        <time>2004-12-18T10:55:10Z</time>
      </trkpt>
      <trkpt lat="44.417316913604736" lon="11.198372840881348">
        <ele>213</ele>
        <time>2004-12-18T10:55:14Z</time>
      </trkpt>
      <trkpt lat="44.417424201965332" lon="11.198265636339784">
        <ele>212</ele>
        <time>2004-12-18T10:55:16Z</time>
      </trkpt>
      <trkpt lat="44.417552864179015" lon="11.198179721832275">
        <ele>211</ele>
        <time>2004-12-18T10:55:18Z</time>
      </trkpt>
      <trkpt lat="44.417724609375" lon="11.198050975799561">
        <ele>210</ele>
        <time>2004-12-18T10:55:21Z</time>
      </trkpt>
      <trkpt lat="44.418067932128906" lon="11.197600364685059">
        <ele>208</ele>
        <time>2004-12-18T10:55:28Z</time>
      </trkpt>
      <trkpt lat="44.418239593505859" lon="11.197300041094422">
        <ele>206</ele>
        <time>2004-12-18T10:55:32Z</time>
      </trkpt>
      <trkpt lat="44.418303966522217" lon="11.197128295898437">
        <ele>205</ele>
        <time>2004-12-18T10:55:34Z</time>
      </trkpt>
      <trkpt lat="44.418432712554932" lon="11.196870803833008">
        <ele>205</ele>
        <time>2004-12-18T10:55:37Z</time>
      </trkpt>
      <trkpt lat="44.418883323669434" lon="11.196656227111816">
        <ele>205</ele>
        <time>2004-12-18T10:55:45Z</time>
      </trkpt>
      <trkpt lat="44.419054985046387" lon="11.196742141619325">
        <ele>208</ele>
        <time>2004-12-18T10:55:50Z</time>
      </trkpt>
      <trkpt lat="44.419140815734863" lon="11.196849262341857">
        <ele>209</ele>
        <time>2004-12-18T10:56:00Z</time>
      </trkpt>
      <trkpt lat="44.419205188751221" lon="11.196935176849365">
        <ele>210</ele>
        <time>2004-12-18T10:56:19Z</time>
      </trkpt>
      <trkpt lat="44.419569969177246" lon="11.197106838226318">
        <ele>206</ele>
        <time>2004-12-18T10:56:26Z</time>
      </trkpt>
      <trkpt lat="44.419956207275391" lon="11.196677684783936">
        <ele>205</ele>
        <time>2004-12-18T10:56:33Z</time>
      </trkpt>
      <trkpt lat="44.42021369934082" lon="11.196269989013672">
        <ele>204</ele>
        <time>2004-12-18T10:56:39Z</time>
      </trkpt>
      <trkpt lat="44.420814514160156" lon="11.196377277374268">
        <ele>204</ele>
        <time>2004-12-18T10:56:48Z</time>
      </trkpt>
      <trkpt lat="44.421050464734435" lon="11.196484565734863">
        <ele>202</ele>
        <time>2004-12-18T10:56:51Z</time>
      </trkpt>
      <trkpt lat="44.421200836077332" lon="11.196634769439697">
        <ele>199</ele>
        <time>2004-12-18T10:56:53Z</time>
      </trkpt>
      <trkpt lat="44.421372413635254" lon="11.196892261505127">
        <ele>196</ele>
        <time>2004-12-18T10:56:56Z</time>
      </trkpt>
      <trkpt lat="44.42147970199585" lon="11.197085380554199">
        <ele>195</ele>
        <time>2004-12-18T10:56:58Z</time>
      </trkpt>
      <trkpt lat="44.421586990356445" lon="11.197557365521789">
        <ele>194</ele>
        <time>2004-12-18T10:57:02Z</time>
      </trkpt>
      <trkpt lat="44.421887397766113" lon="11.198008060455322">
        <ele>191</ele>
        <time>2004-12-18T10:57:07Z</time>
      </trkpt>
      <trkpt lat="44.422080516815186" lon="11.19807243347168">
        <ele>190</ele>
        <time>2004-12-18T10:57:09Z</time>
      </trkpt>
      <trkpt lat="44.422273635864258" lon="11.198093891143799">
        <ele>188</ele>
        <time>2004-12-18T10:57:11Z</time>
      </trkpt>
      <trkpt lat="44.422595500946045" lon="11.197965061292052">
        <ele>187</ele>
        <time>2004-12-18T10:57:14Z</time>
      </trkpt>
      <trkpt lat="44.422681331634521" lon="11.197879314422607">
        <ele>186</ele>
        <time>2004-12-18T10:57:15Z</time>
      </trkpt>
      <trkpt lat="44.423196315765381" lon="11.197385787963867">
        <ele>185</ele>
        <time>2004-12-18T10:57:21Z</time>
      </trkpt>
      <trkpt lat="44.423668384552002" lon="11.19682788848877">
        <ele>184</ele>
        <time>2004-12-18T10:57:28Z</time>
      </trkpt>
      <trkpt lat="44.423990165814757" lon="11.196656227111816">
        <ele>182</ele>
        <time>2004-12-18T10:57:32Z</time>
      </trkpt>
      <trkpt lat="44.424247741699219" lon="11.196677684783936">
        <ele>180</ele>
        <time>2004-12-18T10:57:35Z</time>
      </trkpt>
      <trkpt lat="44.425084590911865" lon="11.196784973144531">
        <ele>177</ele>
        <time>2004-12-18T10:57:45Z</time>
      </trkpt>
      <trkpt lat="44.42547082901001" lon="11.196699058637023">
        <ele>177</ele>
        <time>2004-12-18T10:57:50Z</time>
      </trkpt>
      <trkpt lat="44.425642490386963" lon="11.196677684783936">
        <ele>177</ele>
        <time>2004-12-18T10:57:52Z</time>
      </trkpt>
      <trkpt lat="44.426243305206299" lon="11.196634769439697">
        <ele>175</ele>
        <time>2004-12-18T10:57:59Z</time>
      </trkpt>
      <trkpt lat="44.427058696746826" lon="11.196591937914491">
        <ele>172</ele>
        <time>2004-12-18T10:58:09Z</time>
      </trkpt>
      <trkpt lat="44.427831172943115" lon="11.196484565734863">
        <ele>169</ele>
        <time>2004-12-18T10:58:18Z</time>
      </trkpt>
      <trkpt lat="44.428796768188477" lon="11.196291362866759">
        <ele>168</ele>
        <time>2004-12-18T10:58:30Z</time>
      </trkpt>
      <trkpt lat="44.430062770843506" lon="11.196248531341553">
        <ele>167</ele>
        <time>2004-12-18T10:58:45Z</time>
      </trkpt>
      <trkpt lat="44.430148601531982" lon="11.196269989013672">
        <ele>164</ele>
        <time>2004-12-18T10:58:46Z</time>
      </trkpt>
      <trkpt lat="44.431414604187012" lon="11.196849262341857">
        <ele>161</ele>
        <time>2004-12-18T10:59:01Z</time>
      </trkpt>
      <trkpt lat="44.431650638580322" lon="11.196956634521484">
        <ele>159</ele>
        <time>2004-12-18T10:59:04Z</time>
      </trkpt>
      <trkpt lat="44.432272911071777" lon="11.19706392288208">
        <ele>158</ele>
        <time>2004-12-18T10:59:11Z</time>
      </trkpt>
      <trkpt lat="44.432616233825684" lon="11.196935176849365">
        <ele>158</ele>
        <time>2004-12-18T10:59:15Z</time>
      </trkpt>
      <trkpt lat="44.433002471923828" lon="11.196699058637023">
        <ele>157</ele>
        <time>2004-12-18T10:59:20Z</time>
      </trkpt>
      <trkpt lat="44.4331955909729" lon="11.196677684783936">
        <ele>156</ele>
        <time>2004-12-18T10:59:22Z</time>
      </trkpt>
      <trkpt lat="44.433517539873719" lon="11.196742141619325">
        <ele>156</ele>
        <time>2004-12-18T10:59:26Z</time>
      </trkpt>
      <trkpt lat="44.433603286743164" lon="11.196784973144531">
        <ele>156</ele>
        <time>2004-12-18T10:59:27Z</time>
      </trkpt>
      <trkpt lat="44.434010982513428" lon="11.197235584259033">
        <ele>153</ele>
        <time>2004-12-18T10:59:33Z</time>
      </trkpt>
      <trkpt lat="44.434375762939453" lon="11.19781494140625">
        <ele>153</ele>
        <time>2004-12-18T10:59:39Z</time>
      </trkpt>
      <trkpt lat="44.434826374053955" lon="11.198179721832275">
        <ele>151</ele>
        <time>2004-12-18T10:59:45Z</time>
      </trkpt>
      <trkpt lat="44.435620307922363" lon="11.198458671569824">
        <ele>147</ele>
        <time>2004-12-18T10:59:54Z</time>
      </trkpt>
      <trkpt lat="44.436457240954041" lon="11.198673164471984">
        <ele>144</ele>
        <time>2004-12-18T11:00:04Z</time>
      </trkpt>
      <trkpt lat="44.43819522857666" lon="11.199038028717041">
        <ele>142</ele>
        <time>2004-12-18T11:00:24Z</time>
      </trkpt>
      <trkpt lat="44.438538635149598" lon="11.199102401733398">
        <ele>142</ele>
        <time>2004-12-18T11:00:28Z</time>
      </trkpt>
      <trkpt lat="44.438795959576964" lon="11.199231063947082">
        <ele>141</ele>
        <time>2004-12-18T11:00:31Z</time>
      </trkpt>
      <trkpt lat="44.439096534624696" lon="11.199510097503662">
        <ele>141</ele>
        <time>2004-12-18T11:00:35Z</time>
      </trkpt>
      <trkpt lat="44.439504062756896" lon="11.200003623962402">
        <ele>139</ele>
        <time>2004-12-18T11:00:41Z</time>
      </trkpt>
      <trkpt lat="44.439933300018311" lon="11.200175285339355">
        <ele>139</ele>
        <time>2004-12-18T11:00:46Z</time>
      </trkpt>
      <trkpt lat="44.440019130706787" lon="11.200153827667236">
        <ele>139</ele>
        <time>2004-12-18T11:00:47Z</time>
      </trkpt>
      <trkpt lat="44.44019079208374" lon="11.200110912322998">
        <ele>140</ele>
        <time>2004-12-18T11:00:49Z</time>
      </trkpt>
      <trkpt lat="44.440426826477051" lon="11.200003623962402">
        <ele>137</ele>
        <time>2004-12-18T11:00:52Z</time>
      </trkpt>
      <trkpt lat="44.441113471984863" lon="11.199445724487305">
        <ele>134</ele>
        <time>2004-12-18T11:01:01Z</time>
      </trkpt>
      <trkpt lat="44.44119930267334" lon="11.199402809143066">
        <ele>133</ele>
        <time>2004-12-18T11:01:02Z</time>
      </trkpt>
      <trkpt lat="44.44195032119751" lon="11.199252605438232">
        <ele>133</ele>
        <time>2004-12-18T11:01:11Z</time>
      </trkpt>
      <trkpt lat="44.442186439409852" lon="11.19931697845459">
        <ele>132</ele>
        <time>2004-12-18T11:01:14Z</time>
      </trkpt>
      <trkpt lat="44.442336559295654" lon="11.199402809143066">
        <ele>131</ele>
        <time>2004-12-18T11:01:16Z</time>
      </trkpt>
      <trkpt lat="44.442830085754395" lon="11.199853420257568">
        <ele>129</ele>
        <time>2004-12-18T11:01:23Z</time>
      </trkpt>
      <trkpt lat="44.44340935908258" lon="11.199681758880615">
        <ele>130</ele>
        <time>2004-12-18T11:01:30Z</time>
      </trkpt>
      <trkpt lat="44.443860137835145" lon="11.199188232421875">
        <ele>128</ele>
        <time>2004-12-18T11:01:36Z</time>
      </trkpt>
      <trkpt lat="44.44420337677002" lon="11.199080860242248">
        <ele>131</ele>
        <time>2004-12-18T11:01:40Z</time>
      </trkpt>
      <trkpt lat="44.444546699523926" lon="11.199080860242248">
        <ele>129</ele>
        <time>2004-12-18T11:01:44Z</time>
      </trkpt>
      <trkpt lat="44.444804191589355" lon="11.199080860242248">
        <ele>127</ele>
        <time>2004-12-18T11:01:47Z</time>
      </trkpt>
      <trkpt lat="44.445061683654785" lon="11.19905948638916">
        <ele>130</ele>
        <time>2004-12-18T11:01:50Z</time>
      </trkpt>
      <trkpt lat="44.445233261212707" lon="11.199016571044922">
        <ele>127</ele>
        <time>2004-12-18T11:01:52Z</time>
      </trkpt>
      <trkpt lat="44.445619583129883" lon="11.198780536651611">
        <ele>127</ele>
        <time>2004-12-18T11:01:57Z</time>
      </trkpt>
      <trkpt lat="44.446456432342529" lon="11.19785794056952">
        <ele>127</ele>
        <time>2004-12-18T11:02:10Z</time>
      </trkpt>
      <trkpt lat="44.44744348526001" lon="11.197450160980225">
        <ele>126</ele>
        <time>2004-12-18T11:02:24Z</time>
      </trkpt>
      <trkpt lat="44.447593688964844" lon="11.197407161816955">
        <ele>125</ele>
        <time>2004-12-18T11:02:26Z</time>
      </trkpt>
      <trkpt lat="44.44793701171875" lon="11.19732141494751">
        <ele>124</ele>
        <time>2004-12-18T11:02:30Z</time>
      </trkpt>
      <trkpt lat="44.448215961456299" lon="11.19706392288208">
        <ele>121</ele>
        <time>2004-12-18T11:02:34Z</time>
      </trkpt>
      <trkpt lat="44.44888106547296" lon="11.196420192718506">
        <ele>117</ele>
        <time>2004-12-18T11:02:43Z</time>
      </trkpt>
      <trkpt lat="44.449567794799805" lon="11.196227073669434">
        <ele>115</ele>
        <time>2004-12-18T11:02:51Z</time>
      </trkpt>
      <trkpt lat="44.450211524963379" lon="11.195862293243408">
        <ele>113</ele>
        <time>2004-12-18T11:02:59Z</time>
      </trkpt>
      <trkpt lat="44.450447559356689" lon="11.195540428161621">
        <ele>112</ele>
        <time>2004-12-18T11:03:03Z</time>
      </trkpt>
      <trkpt lat="44.450533390045166" lon="11.195390224456787">
        <ele>111</ele>
        <time>2004-12-18T11:03:05Z</time>
      </trkpt>
      <trkpt lat="44.450726509094238" lon="11.195411682128906">
        <ele>109</ele>
        <time>2004-12-18T11:03:11Z</time>
      </trkpt>
      <trkpt lat="44.451498985290527" lon="11.195840835571289">
        <ele>107</ele>
        <time>2004-12-18T11:03:27Z</time>
      </trkpt>
      <trkpt lat="44.45244312286377" lon="11.196398735046387">
        <ele>105</ele>
        <time>2004-12-18T11:03:47Z</time>
      </trkpt>
      <trkpt lat="44.452679241076112" lon="11.196506023406982">
        <ele>104</ele>
        <time>2004-12-18T11:03:52Z</time>
      </trkpt>
      <trkpt lat="44.453194141387939" lon="11.196591937914491">
        <ele>104</ele>
        <time>2004-12-18T11:04:03Z</time>
      </trkpt>
      <trkpt lat="44.453387260437012" lon="11.196699058637023">
        <ele>104</ele>
        <time>2004-12-18T11:04:07Z</time>
      </trkpt>
      <trkpt lat="44.453558921813965" lon="11.19680643081665">
        <ele>103</ele>
        <time>2004-12-18T11:04:11Z</time>
      </trkpt>
      <trkpt lat="44.454052364453673" lon="11.197106838226318">
        <ele>103</ele>
        <time>2004-12-18T11:04:21Z</time>
      </trkpt>
      <trkpt lat="44.454288482666016" lon="11.197450160980225">
        <ele>102</ele>
        <time>2004-12-18T11:04:27Z</time>
      </trkpt>
      <trkpt lat="44.454503059387207" lon="11.197922229766846">
        <ele>102</ele>
        <time>2004-12-18T11:04:34Z</time>
      </trkpt>
      <trkpt lat="44.45467472076416" lon="11.198201179504395">
        <ele>101</ele>
        <time>2004-12-18T11:04:39Z</time>
      </trkpt>
      <trkpt lat="44.455618858337402" lon="11.199102401733398">
        <ele>100</ele>
        <time>2004-12-18T11:05:00Z</time>
      </trkpt>
      <trkpt lat="44.455962181091309" lon="11.199274063110352">
        <ele>96</ele>
        <time>2004-12-18T11:05:09Z</time>
      </trkpt>
      <trkpt lat="44.456648826599121" lon="11.199681758880615">
        <ele>96</ele>
        <time>2004-12-18T11:05:26Z</time>
      </trkpt>
      <trkpt lat="44.457485675811768" lon="11.200368404388428">
        <ele>94</ele>
        <time>2004-12-18T11:05:46Z</time>
      </trkpt>
      <trkpt lat="44.458043575286865" lon="11.200904762372375">
        <ele>93</ele>
        <time>2004-12-18T11:06:02Z</time>
      </trkpt>
      <trkpt lat="44.458086490631104" lon="11.200947761535645">
        <ele>93</ele>
        <time>2004-12-18T11:06:04Z</time>
      </trkpt>
      <trkpt lat="44.458129405975342" lon="11.200947761535645">
        <ele>94</ele>
        <time>2004-12-18T11:06:07Z</time>
      </trkpt>
      <trkpt lat="44.458150863647461" lon="11.200969219207764">
        <ele>94</ele>
        <time>2004-12-18T11:06:16Z</time>
      </trkpt>
      <trkpt lat="44.458279609680176" lon="11.200969219207764">
        <ele>95</ele>
        <time>2004-12-18T11:06:27Z</time>
      </trkpt>
      <trkpt lat="44.458301067352295" lon="11.200926303863525">
        <ele>94</ele>
        <time>2004-12-18T11:06:29Z</time>
      </trkpt>
      <trkpt lat="44.458301067352295" lon="11.200926303863525">
        <ele>95</ele>
        <time>2004-12-18T11:06:30Z</time>
      </trkpt>
      <trkpt lat="44.45842981338501" lon="11.200904762372375">
        <ele>94</ele>
        <time>2004-12-18T11:06:38Z</time>
      </trkpt>
      <trkpt lat="44.458687305450439" lon="11.20081901550293">
        <ele>92</ele>
        <time>2004-12-18T11:06:52Z</time>
      </trkpt>
      <trkpt lat="44.458794593811035" lon="11.20081901550293">
        <ele>91</ele>
        <time>2004-12-18T11:06:57Z</time>
      </trkpt>
      <trkpt lat="44.45918083190918" lon="11.200754558667541">
        <ele>93</ele>
        <time>2004-12-18T11:07:15Z</time>
      </trkpt>
      <trkpt lat="44.459588527679443" lon="11.200411319732666">
        <ele>91</ele>
        <time>2004-12-18T11:07:28Z</time>
      </trkpt>
      <trkpt lat="44.459888935089111" lon="11.200089538469911">
        <ele>92</ele>
        <time>2004-12-18T11:07:37Z</time>
      </trkpt>
      <trkpt lat="44.460039138793945" lon="11.200089538469911">
        <ele>94</ele>
        <time>2004-12-18T11:07:41Z</time>
      </trkpt>
      <trkpt lat="44.46016788482666" lon="11.200025081634521">
        <ele>96</ele>
        <time>2004-12-18T11:09:14Z</time>
      </trkpt>
      <trkpt lat="44.460253715515137" lon="11.199917793273926">
        <ele>95</ele>
        <time>2004-12-18T11:09:18Z</time>
      </trkpt>
      <trkpt lat="44.460318088531494" lon="11.199874877929688">
        <ele>95</ele>
        <time>2004-12-18T11:09:20Z</time>
      </trkpt>
      <trkpt lat="44.46133422665298" lon="11.199722327291965">
        <ele>100</ele>
        <time>1989-12-31T00:00:00Z</time>
      </trkpt>
      <trkpt lat="44.462322201579809" lon="11.19971277192235">
        <ele>100</ele>
        <time>1989-12-31T00:00:00Z</time>
      </trkpt>
      <trkpt lat="44.463642099872231" lon="11.199877727776766">
        <ele>100</ele>
        <time>1989-12-31T00:00:00Z</time>
      </trkpt>
      <trkpt lat="44.464344000443816" lon="11.199983591213822">
        <ele>100</ele>
        <time>1989-12-31T00:00:00Z</time>
      </trkpt>
      <trkpt lat="44.464492779225111" lon="11.200354574248195">
        <ele>100</ele>
        <time>1989-12-31T00:00:00Z</time>
      </trkpt>
      <trkpt lat="44.46660996414721" lon="11.201713616028428">
        <ele>103</ele>
        <time>1989-12-31T00:00:00Z</time>
      </trkpt>
      <trkpt lat="44.467285210266709" lon="11.201796513050795">
        <ele>106</ele>
        <time>1989-12-31T00:00:00Z</time>
      </trkpt>
      <trkpt lat="44.468166399747133" lon="11.201726859435439">
        <ele>110</ele>
        <time>1989-12-31T00:00:00Z</time>
      </trkpt>
      <trkpt lat="44.468376198783517" lon="11.201859461143613">
        <ele>110</ele>
        <time>1989-12-31T00:00:00Z</time>
      </trkpt>
      <trkpt lat="44.470096584409475" lon="11.204836796969175">
        <ele>110</ele>
        <time>1989-12-31T00:00:00Z</time>
      </trkpt>
      <trkpt lat="44.470573430880904" lon="11.205346081405878">
        <ele>110</ele>
        <time>1989-12-31T00:00:00Z</time>
      </trkpt>
      <trkpt lat="44.471073159947991" lon="11.20563886128366">
        <ele>110</ele>
        <time>1989-12-31T00:00:00Z</time>
      </trkpt>
      <trkpt lat="44.471180280670524" lon="11.205382207408547">
        <ele>100</ele>
        <time>1989-12-31T00:00:00Z</time>
      </trkpt>
      <trkpt lat="44.471478005871177" lon="11.204711738973856">
        <ele>95</ele>
        <time>1989-12-31T00:00:00Z</time>
      </trkpt>
      <trkpt lat="44.47152896784246" lon="11.204666141420603">
        <ele>92</ele>
        <time>1989-12-31T00:00:00Z</time>
      </trkpt>
      <trkpt lat="44.471684535965323" lon="11.204518536105752">
        <ele>90</ele>
        <time>1989-12-31T00:00:00Z</time>
      </trkpt>
      <trkpt lat="44.471772965043783" lon="11.204467574134469">
        <ele>90</ele>
        <time>1989-12-31T00:00:00Z</time>
      </trkpt>
      <trkpt lat="44.472338994964957" lon="11.204086700454354">
        <ele>90</ele>
        <time>1989-12-31T00:00:00Z</time>
      </trkpt>
      <trkpt lat="44.472414096817374" lon="11.204247632995248">
        <ele>90</ele>
        <time>1989-12-31T00:00:00Z</time>
      </trkpt>
      <trkpt lat="44.472475787624717" lon="11.204362967982888">
        <ele>90</ele>
        <time>1989-12-31T00:00:00Z</time>
      </trkpt>
      <trkpt lat="44.472502609714866" lon="11.204400518909097">
        <ele>90</ele>
        <time>1989-12-31T00:00:00Z</time>
      </trkpt>
      <trkpt lat="44.472977360710502" lon="11.205001333728433">
        <ele>90</ele>
        <time>1989-12-31T00:00:00Z</time>
      </trkpt>
      <trkpt lat="44.474421981722116" lon="11.206899834796786">
        <ele>90</ele>
        <time>1989-12-31T00:00:00Z</time>
      </trkpt>
      <trkpt lat="44.47458291426301" lon="11.207063365727663">
        <ele>90</ele>
        <time>1989-12-31T00:00:00Z</time>
      </trkpt>
      <trkpt lat="44.474623063579202" lon="11.207082141190767">
        <ele>88</ele>
        <time>1989-12-31T00:00:00Z</time>
      </trkpt>
      <trkpt lat="44.475730899721384" lon="11.207583714276552">
        <ele>88</ele>
        <time>1989-12-31T00:00:00Z</time>
      </trkpt>
      <trkpt lat="44.475932065397501" lon="11.207677591592073">
        <ele>85</ele>
        <time>1989-12-31T00:00:00Z</time>
      </trkpt>
      <trkpt lat="44.475996438413858" lon="11.20764808729291">
        <ele>85</ele>
        <time>1989-12-31T00:00:00Z</time>
      </trkpt>
      <trkpt lat="44.476007167249918" lon="11.207610536366701">
        <ele>85</ele>
        <time>1989-12-31T00:00:00Z</time>
      </trkpt>
      <trkpt lat="44.476106408983469" lon="11.207597125321627">
        <ele>85</ele>
        <time>1989-12-31T00:00:00Z</time>
      </trkpt>
      <trkpt lat="44.476133231073618" lon="11.207615900784731">
        <ele>85</ele>
        <time>1989-12-31T00:00:00Z</time>
      </trkpt>
      <trkpt lat="44.476186875253916" lon="11.20763735845685">
        <ele>85</ele>
        <time>1989-12-31T00:00:00Z</time>
      </trkpt>
      <trkpt lat="44.476688364520669" lon="11.207886803895235">
        <ele>85</ele>
        <time>1989-12-31T00:00:00Z</time>
      </trkpt>
      <trkpt lat="44.476718036457896" lon="11.207921672612429">
        <ele>84</ele>
        <time>1989-12-31T00:00:00Z</time>
      </trkpt>
      <trkpt lat="44.476779559627175" lon="11.207994092255831">
        <ele>84</ele>
        <time>1989-12-31T00:00:00Z</time>
      </trkpt>
      <trkpt lat="44.476814512163401" lon="11.208031559363008">
        <ele>84</ele>
        <time>1989-12-31T00:00:00Z</time>
      </trkpt>
      <trkpt lat="44.477368807420135" lon="11.209000507369637">
        <ele>84</ele>
        <time>1989-12-31T00:00:00Z</time>
      </trkpt>
      <trkpt lat="44.477658485993743" lon="11.20955036021769">
        <ele>84</ele>
        <time>1989-12-31T00:00:00Z</time>
      </trkpt>
      <trkpt lat="44.477682625874877" lon="11.209604004397988">
        <ele>83</ele>
        <time>1989-12-31T00:00:00Z</time>
      </trkpt>
      <trkpt lat="44.47785428725183" lon="11.210035840049386">
        <ele>83</ele>
        <time>1989-12-31T00:00:00Z</time>
      </trkpt>
      <trkpt lat="44.477856969460845" lon="11.210081437602639">
        <ele>83</ele>
        <time>1989-12-31T00:00:00Z</time>
      </trkpt>
      <trkpt lat="44.477859735488892" lon="11.210164586082101">
        <ele>83</ele>
        <time>1989-12-31T00:00:00Z</time>
      </trkpt>
      <trkpt lat="44.477867698296905" lon="11.21019677259028">
        <ele>84</ele>
        <time>1989-12-31T00:00:00Z</time>
      </trkpt>
      <trkpt lat="44.477873062714934" lon="11.210226276889443">
        <ele>84</ele>
        <time>1989-12-31T00:00:00Z</time>
      </trkpt>
      <trkpt lat="44.477894520387053" lon="11.210279921069741">
        <ele>84</ele>
        <time>1989-12-31T00:00:00Z</time>
      </trkpt>
      <trkpt lat="44.478181516751647" lon="11.211081901565194">
        <ele>84</ele>
        <time>1989-12-31T00:00:00Z</time>
      </trkpt>
      <trkpt lat="44.478956675156951" lon="11.21267513372004">
        <ele>84</ele>
        <time>1989-12-31T00:00:00Z</time>
      </trkpt>
      <trkpt lat="44.479018365964293" lon="11.212790468707681">
        <ele>84</ele>
        <time>1989-12-31T00:00:00Z</time>
      </trkpt>
      <trkpt lat="44.47906656190753" lon="11.212911168113351">
        <ele>83</ele>
        <time>1989-12-31T00:00:00Z</time>
      </trkpt>
      <trkpt lat="44.479090785607696" lon="11.212972858920693">
        <ele>83</ele>
        <time>1989-12-31T00:00:00Z</time>
      </trkpt>
      <trkpt lat="44.479699898511171" lon="11.214250763878226">
        <ele>82</ele>
        <time>1989-12-31T00:00:00Z</time>
      </trkpt>
      <trkpt lat="44.480512607842684" lon="11.215680381283164">
        <ele>82</ele>
        <time>1989-12-31T00:00:00Z</time>
      </trkpt>
      <trkpt lat="44.480590391904116" lon="11.215841313824058">
        <ele>80</ele>
        <time>1989-12-31T00:00:00Z</time>
      </trkpt>
      <trkpt lat="44.48060916736722" lon="11.215895041823387">
        <ele>79</ele>
        <time>1989-12-31T00:00:00Z</time>
      </trkpt>
      <trkpt lat="44.480692315846682" lon="11.216195365414023">
        <ele>79</ele>
        <time>1989-12-31T00:00:00Z</time>
      </trkpt>
      <trkpt lat="44.480764735490084" lon="11.216353615745902">
        <ele>79</ele>
        <time>1989-12-31T00:00:00Z</time>
      </trkpt>
      <trkpt lat="44.481510389596224" lon="11.217195829376578">
        <ele>78</ele>
        <time>1989-12-31T00:00:00Z</time>
      </trkpt>
      <trkpt lat="44.482277501374483" lon="11.218040725216269">
        <ele>77</ele>
        <time>1989-12-31T00:00:00Z</time>
      </trkpt>
      <trkpt lat="44.483141172677279" lon="11.21902777813375">
        <ele>75</ele>
        <time>1989-12-31T00:00:00Z</time>
      </trkpt>
      <trkpt lat="44.483476364985108" lon="11.219328185543418">
        <ele>75</ele>
        <time>1989-12-31T00:00:00Z</time>
      </trkpt>
      <trkpt lat="44.483320713043213" lon="11.219809139147401">
        <ele>71</ele>
        <time>2002-12-07T11:23:03Z</time>
      </trkpt>
      <trkpt lat="44.483170509338379" lon="11.22028112411499">
        <ele>70</ele>
        <time>2002-12-07T11:23:13Z</time>
      </trkpt>
      <trkpt lat="44.483084678649902" lon="11.221203804016113">
        <ele>70</ele>
        <time>2002-12-07T11:23:28Z</time>
      </trkpt>
      <trkpt lat="44.483084678649902" lon="11.22133263386786">
        <ele>71</ele>
        <time>2002-12-07T11:23:30Z</time>
      </trkpt>
      <trkpt lat="44.483127593994141" lon="11.22154712677002">
        <ele>70</ele>
        <time>2002-12-07T11:23:34Z</time>
      </trkpt>
      <trkpt lat="44.483707034960389" lon="11.222469806671143">
        <ele>73</ele>
        <time>2002-12-07T11:23:56Z</time>
      </trkpt>
      <trkpt lat="44.484436511993408" lon="11.223456859588623">
        <ele>70</ele>
        <time>2002-12-07T11:24:19Z</time>
      </trkpt>
      <trkpt lat="44.484479427337646" lon="11.223499774932861">
        <ele>71</ele>
        <time>2002-12-07T11:24:20Z</time>
      </trkpt>
      <trkpt lat="44.484565341845155" lon="11.223843097686768">
        <ele>70</ele>
        <time>2002-12-07T11:24:25Z</time>
      </trkpt>
      <trkpt lat="44.484608173370361" lon="11.224272334948182">
        <ele>70</ele>
        <time>2002-12-07T11:24:31Z</time>
      </trkpt>
      <trkpt lat="44.48488712310791" lon="11.224958896636963">
        <ele>69</ele>
        <time>2002-12-07T11:24:45Z</time>
      </trkpt>
      <trkpt lat="44.484908580780029" lon="11.225087558850646">
        <ele>69</ele>
        <time>2002-12-07T11:24:55Z</time>
      </trkpt>
      <trkpt lat="44.484865665435791" lon="11.225066184997559">
        <ele>69</ele>
        <time>2002-12-07T11:25:03Z</time>
      </trkpt>
      <trkpt lat="44.484865665435791" lon="11.225152015686035">
        <ele>69</ele>
        <time>2002-12-07T11:25:10Z</time>
      </trkpt>
      <trkpt lat="44.484672462567687" lon="11.225216388702393">
        <ele>70</ele>
        <time>2002-12-07T11:25:23Z</time>
      </trkpt>
      <trkpt lat="44.484307765960693" lon="11.225109100341797">
        <ele>70</ele>
        <time>2002-12-07T11:25:39Z</time>
      </trkpt>
      <trkpt lat="44.483492374420166" lon="11.224851608276367">
        <ele>71</ele>
        <time>2002-12-07T11:26:01Z</time>
      </trkpt>
      <trkpt lat="44.48289155960083" lon="11.224679863080382">
        <ele>72</ele>
        <time>2002-12-07T11:26:16Z</time>
      </trkpt>
      <trkpt lat="44.482784271240234" lon="11.224915981292725">
        <ele>72</ele>
        <time>2002-12-07T11:26:21Z</time>
      </trkpt>
      <trkpt lat="44.482591236010194" lon="11.226139068603516">
        <ele>72</ele>
        <time>2002-12-07T11:26:39Z</time>
      </trkpt>
      <trkpt lat="44.482569694519043" lon="11.226203441619873">
        <ele>72</ele>
        <time>2002-12-07T11:26:40Z</time>
      </trkpt>
      <trkpt lat="44.482462406158447" lon="11.227104663848877">
        <ele>74</ele>
        <time>2002-12-07T11:26:56Z</time>
      </trkpt>
      <trkpt lat="44.482419490814209" lon="11.227383613586426">
        <ele>74</ele>
        <time>2002-12-07T11:27:01Z</time>
      </trkpt>
      <trkpt lat="44.482290660962462" lon="11.228177463635802">
        <ele>74</ele>
        <time>2002-12-07T11:27:16Z</time>
      </trkpt>
      <trkpt lat="44.482312202453613" lon="11.228199005126953">
        <ele>74</ele>
        <time>2002-12-07T11:27:17Z</time>
      </trkpt>
      <trkpt lat="44.4826340675354" lon="11.228306293487549">
        <ele>74</ele>
        <time>2002-12-07T11:27:26Z</time>
      </trkpt>
      <trkpt lat="44.482762813568115" lon="11.228349208831787">
        <ele>73</ele>
        <time>2002-12-07T11:27:29Z</time>
      </trkpt>
      <trkpt lat="44.482719898223877" lon="11.228928565979004">
        <ele>73</ele>
        <time>2002-12-07T11:27:39Z</time>
      </trkpt>
      <trkpt lat="44.482698440551758" lon="11.228971481323242">
        <ele>74</ele>
        <time>2002-12-07T11:27:40Z</time>
      </trkpt>
      <trkpt lat="44.482569694519043" lon="11.229293262585998">
        <ele>72</ele>
        <time>2002-12-07T11:27:51Z</time>
      </trkpt>
      <trkpt lat="44.482483863830566" lon="11.229465007781982">
        <ele>73</ele>
        <time>2002-12-07T11:27:59Z</time>
      </trkpt>
      <trkpt lat="44.48214054107666" lon="11.229443633928895">
        <ele>73</ele>
        <time>2002-12-07T11:28:12Z</time>
      </trkpt>
      <trkpt lat="44.482247829437256" lon="11.230559265241027">
        <ele>73</ele>
        <time>2002-12-07T11:28:28Z</time>
      </trkpt>
      <trkpt lat="44.482312202453613" lon="11.23201847076416">
        <ele>71</ele>
        <time>2002-12-07T11:28:46Z</time>
      </trkpt>
      <trkpt lat="44.482505321502686" lon="11.233177185058594">
        <ele>70</ele>
        <time>2002-12-07T11:29:02Z</time>
      </trkpt>
      <trkpt lat="44.482784271240234" lon="11.234657764434814">
        <ele>70</ele>
        <time>2002-12-07T11:29:23Z</time>
      </trkpt>
      <trkpt lat="44.482784271240234" lon="11.234786510467529">
        <ele>70</ele>
        <time>2002-12-07T11:29:25Z</time>
      </trkpt>
      <trkpt lat="44.482741439715028" lon="11.234958171844482">
        <ele>70</ele>
        <time>2002-12-07T11:29:28Z</time>
      </trkpt>
      <trkpt lat="44.482698440551758" lon="11.235151290893555">
        <ele>69</ele>
        <time>2002-12-07T11:29:31Z</time>
      </trkpt>
      <trkpt lat="44.482698440551758" lon="11.23573056422174">
        <ele>70</ele>
        <time>2002-12-07T11:29:39Z</time>
      </trkpt>
      <trkpt lat="44.482698440551758" lon="11.237039566040039">
        <ele>71</ele>
        <time>2002-12-07T11:29:57Z</time>
      </trkpt>
      <trkpt lat="44.482698440551758" lon="11.237168312072754">
        <ele>71</ele>
        <time>2002-12-07T11:29:59Z</time>
      </trkpt>
      <trkpt lat="44.482827186584473" lon="11.237704837694764">
        <ele>72</ele>
        <time>2002-12-07T11:30:09Z</time>
      </trkpt>
      <trkpt lat="44.483084678649902" lon="11.238412940874696">
        <ele>73</ele>
        <time>2002-12-07T11:30:22Z</time>
      </trkpt>
      <trkpt lat="44.483256340026855" lon="11.238842010498047">
        <ele>74</ele>
        <time>2002-12-07T11:30:30Z</time>
      </trkpt>
      <trkpt lat="44.483492374420166" lon="11.239550113677979">
        <ele>75</ele>
        <time>2002-12-07T11:30:42Z</time>
      </trkpt>
      <trkpt lat="44.483728408813477" lon="11.240837574005127">
        <ele>74</ele>
        <time>2002-12-07T11:31:00Z</time>
      </trkpt>
      <trkpt lat="44.483749866485596" lon="11.240923404693604">
        <ele>73</ele>
        <time>2002-12-07T11:31:01Z</time>
      </trkpt>
      <trkpt lat="44.484028816223145" lon="11.242167865857482">
        <ele>70</ele>
        <time>2002-12-07T11:31:14Z</time>
      </trkpt>
      <trkpt lat="44.484071731567383" lon="11.242339611053467">
        <ele>70</ele>
        <time>2002-12-07T11:31:16Z</time>
      </trkpt>
      <trkpt lat="44.484157562255859" lon="11.242554187774658">
        <ele>70</ele>
        <time>2002-12-07T11:31:19Z</time>
      </trkpt>
      <trkpt lat="44.484329223632813" lon="11.243798732757568">
        <ele>72</ele>
        <time>2002-12-07T11:31:35Z</time>
      </trkpt>
      <trkpt lat="44.484243392944336" lon="11.244635581970215">
        <ele>75</ele>
        <time>2002-12-07T11:31:46Z</time>
      </trkpt>
      <trkpt lat="44.484114563092589" lon="11.245386600494385">
        <ele>75</ele>
        <time>2002-12-07T11:31:56Z</time>
      </trkpt>
      <trkpt lat="44.483599662780762" lon="11.246137619018555">
        <ele>76</ele>
        <time>2002-12-07T11:32:10Z</time>
      </trkpt>
      <trkpt lat="44.483020305633545" lon="11.246695518493652">
        <ele>79</ele>
        <time>2002-12-07T11:32:21Z</time>
      </trkpt>
      <trkpt lat="44.482762813568115" lon="11.24725341796875">
        <ele>80</ele>
        <time>2002-12-07T11:32:28Z</time>
      </trkpt>
      <trkpt lat="44.482548236846924" lon="11.248197639361024">
        <ele>80</ele>
        <time>2002-12-07T11:32:39Z</time>
      </trkpt>
      <trkpt lat="44.481968879699707" lon="11.249163234606385">
        <ele>81</ele>
        <time>2002-12-07T11:32:53Z</time>
      </trkpt>
      <trkpt lat="44.481368064880371" lon="11.250236034393311">
        <ele>82</ele>
        <time>2002-12-07T11:33:06Z</time>
      </trkpt>
      <trkpt lat="44.481303691864014" lon="11.251051425933838">
        <ele>82</ele>
        <time>2002-12-07T11:33:13Z</time>
      </trkpt>
      <trkpt lat="44.481518268585205" lon="11.252467632293701">
        <ele>81</ele>
        <time>2002-12-07T11:33:26Z</time>
      </trkpt>
      <trkpt lat="44.481604099273682" lon="11.253862380981445">
        <ele>80</ele>
        <time>2002-12-07T11:33:40Z</time>
      </trkpt>
      <trkpt lat="44.481496810913086" lon="11.254205703735352">
        <ele>80</ele>
        <time>2002-12-07T11:33:44Z</time>
      </trkpt>
      <trkpt lat="44.481475437059999" lon="11.254892265424132">
        <ele>80</ele>
        <time>2002-12-07T11:33:51Z</time>
      </trkpt>
      <trkpt lat="44.481282234191895" lon="11.256458759307861">
        <ele>81</ele>
        <time>2002-12-07T11:34:08Z</time>
      </trkpt>
      <trkpt lat="44.481282234191895" lon="11.258089458569884">
        <ele>80</ele>
        <time>2002-12-07T11:34:25Z</time>
      </trkpt>
      <trkpt lat="44.48138952255249" lon="11.259355461224914">
        <ele>79</ele>
        <time>2002-12-07T11:34:38Z</time>
      </trkpt>
      <trkpt lat="44.481303691864014" lon="11.260063564404845">
        <ele>78</ele>
        <time>2002-12-07T11:34:45Z</time>
      </trkpt>
      <trkpt lat="44.480681419372559" lon="11.261179363355041">
        <ele>75</ele>
        <time>2002-12-07T11:34:57Z</time>
      </trkpt>
      <trkpt lat="44.480574131011963" lon="11.261351108551025">
        <ele>74</ele>
        <time>2002-12-07T11:34:59Z</time>
      </trkpt>
      <trkpt lat="44.480445384979248" lon="11.261479938402772">
        <ele>73</ele>
        <time>2002-12-07T11:35:01Z</time>
      </trkpt>
      <trkpt lat="44.479544162750244" lon="11.262745941057801">
        <ele>71</ele>
        <time>2002-12-07T11:35:17Z</time>
      </trkpt>
      <trkpt lat="44.478996321558952" lon="11.263706171885133">
        <ele>71</ele>
        <time>1989-12-31T00:00:00Z</time>
      </trkpt>
      <trkpt lat="44.47896153666079" lon="11.265253471210599">
        <ele>69</ele>
        <time>2002-12-07T11:35:45Z</time>
      </trkpt>
      <trkpt lat="44.479068825021386" lon="11.265747081488371">
        <ele>69</ele>
        <time>2002-12-07T11:35:50Z</time>
      </trkpt>
      <trkpt lat="44.479605183005333" lon="11.267463695257902">
        <ele>66</ele>
        <time>2002-12-07T11:36:08Z</time>
      </trkpt>
      <trkpt lat="44.479733929038048" lon="11.268000137060881">
        <ele>67</ele>
        <time>2002-12-07T11:36:13Z</time>
      </trkpt>
      <trkpt lat="44.479798302054405" lon="11.268429290503263">
        <ele>65</ele>
        <time>2002-12-07T11:36:17Z</time>
      </trkpt>
      <trkpt lat="44.479798302054405" lon="11.268536578863859">
        <ele>65</ele>
        <time>2002-12-07T11:36:18Z</time>
      </trkpt>
      <trkpt lat="44.479583725333214" lon="11.270145904272795">
        <ele>62</ele>
        <time>2002-12-07T11:36:34Z</time>
      </trkpt>
      <trkpt lat="44.479454979300499" lon="11.27076817676425">
        <ele>63</ele>
        <time>2002-12-07T11:36:42Z</time>
      </trkpt>
      <trkpt lat="44.479390606284142" lon="11.270896922796965">
        <ele>63</ele>
        <time>2002-12-07T11:36:44Z</time>
      </trkpt>
      <trkpt lat="44.479154571890831" lon="11.270896922796965">
        <ele>61</ele>
        <time>2002-12-07T11:36:50Z</time>
      </trkpt>
      <trkpt lat="44.478507991880178" lon="11.270528789609671">
        <ele>61</ele>
        <time>1989-12-31T00:00:00Z</time>
      </trkpt>
    </trkseg>
  </trk>

</gpx>
